PWSweather.com
Personal Weather Stations
Station Observations
ARECO747
Argentina , San Antonio ArecoAR Bs.As

Argentina San Antonio ArecoAR Bs.As

Lat: -34.24447275818, Lon: -59.47654187679

Elevation: 102

Station Type: InformaciĆ³n generada con nuevo Microchip Ethernet conectado a estaciĆ³n WH1081

http://www.meteostar.com.ar

Latest ConditionsUpdated 11:40:46 AM GMT-03:57 Saturday, Jul 22, 2017
Currently Today's Max Today's Min Today's Average
Temperature 61.2°F16.2°C 61.2°F16.2°C 44.6°F7.0°C 48.3°F9.1°C
Dew Point 47.1°F8.4°C 48.2°F9.0°C 42.1°F5.6°C 44.1°F6.7°C
Winds 5.4 mph 8.7 kmh 13.0 mph NE20.9 kmh NE - 3.4 mph 5.5 kmh
Wind Gusts 9.8 mph15.8 kmh 16.8 mph27.0 kmh - -
Humidity 60% 97% 60% 86%
Pressure 30.03 in1016.9 mb 30.14 in1020.7 mb 30.03 in1016.9 mb -
Hour Temp Dew Point Humidity Winds Wind Gusts Pressure Precip Precip Rate Daily Precip Total
11:40 AM 61.2°F16.2°C 47.1°F8.4°C 60% 5.4 mph 8.7 kmh 9.8 mph15.8 kmh 30.03 in1016.9 mb 0.00 in0.0 mm 0.00 in0.0 mm 0.00 in0.0 mm
11:39 AM 61.2°F16.2°C 47.1°F8.4°C 60% 8.3 mph 13.4 kmh 10.7 mph17.2 kmh 30.04 in1017.3 mb 0.00 in0.0 mm 0.00 in0.0 mm 0.00 in0.0 mm
11:38 AM 61.2°F16.2°C 47.1°F8.4°C 60% 6.9 mph NE11.1 kmh NE 10.7 mph17.2 kmh 30.04 in1017.3 mb 0.00 in0.0 mm 0.00 in0.0 mm 0.00 in0.0 mm
11:37 AM 61.0°F16.1°C 46.9°F8.3°C 60% 6.0 mph 9.7 kmh 12.1 mph19.5 kmh 30.04 in1017.3 mb 0.00 in0.0 mm 0.00 in0.0 mm 0.00 in0.0 mm
11:36 AM 60.8°F16.0°C 47.3°F8.5°C 61% 3.8 mph 6.1 kmh 9.2 mph14.8 kmh 30.04 in1017.3 mb 0.00 in0.0 mm 0.00 in0.0 mm 0.00 in0.0 mm
11:34 AM 60.8°F16.0°C 47.3°F8.5°C 61% 8.3 mph 13.4 kmh 13.0 mph20.9 kmh 30.03 in1016.9 mb 0.00 in0.0 mm 0.00 in0.0 mm 0.00 in0.0 mm
11:33 AM 60.8°F16.0°C 47.3°F8.5°C 61% 9.8 mph NW15.8 kmh NW 13.0 mph20.9 kmh 30.04 in1017.3 mb 0.00 in0.0 mm 0.00 in0.0 mm 0.00 in0.0 mm
11:32 AM 60.6°F15.9°C 47.5°F8.6°C 62% 3.1 mph 5.0 kmh 6.9 mph11.1 kmh 30.04 in1017.3 mb 0.00 in0.0 mm 0.00 in0.0 mm 0.00 in0.0 mm
11:31 AM 60.4°F15.8°C 47.3°F8.5°C 62% 4.5 mph 7.2 kmh 10.7 mph17.2 kmh 30.04 in1017.3 mb 0.00 in0.0 mm 0.00 in0.0 mm 0.00 in0.0 mm
11:30 AM 60.6°F15.9°C 47.5°F8.6°C 62% 13.0 mph NE20.9 kmh NE 16.8 mph27.0 kmh 30.04 in1017.3 mb 0.00 in0.0 mm 0.00 in0.0 mm 0.00 in0.0 mm
11:29 AM 60.8°F16.0°C 47.3°F8.5°C 61% 7.6 mph 12.2 kmh 12.1 mph19.5 kmh 30.03 in1016.9 mb 0.00 in0.0 mm 0.00 in0.0 mm 0.00 in0.0 mm
11:27 AM 60.6°F15.9°C 47.5°F8.6°C 62% 6.0 mph 9.7 kmh 9.8 mph15.8 kmh 30.05 in1017.6 mb 0.00 in0.0 mm 0.00 in0.0 mm 0.00 in0.0 mm
11:26 AM 60.4°F15.8°C 47.3°F8.5°C 62% 3.8 mph NE6.1 kmh NE 5.4 mph8.7 kmh 30.05 in1017.6 mb 0.00 in0.0 mm 0.00 in0.0 mm 0.00 in0.0 mm
11:25 AM 60.3°F15.7°C 47.1°F8.4°C 62% 3.1 mph 5.0 kmh 9.8 mph15.8 kmh 30.05 in1017.6 mb 0.00 in0.0 mm 0.00 in0.0 mm 0.00 in0.0 mm
11:24 AM 60.1°F15.6°C 46.9°F8.3°C 62% 5.4 mph NE8.7 kmh NE 9.2 mph14.8 kmh 30.05 in1017.6 mb 0.00 in0.0 mm 0.00 in0.0 mm 0.00 in0.0 mm
11:23 AM 59.9°F15.5°C 46.8°F8.2°C 62% 3.1 mph 5.0 kmh 8.3 mph13.4 kmh 30.05 in1017.6 mb 0.00 in0.0 mm 0.00 in0.0 mm 0.00 in0.0 mm
11:21 AM 59.9°F15.5°C 46.8°F8.2°C 62% 6.9 mph 11.1 kmh 11.4 mph18.3 kmh 30.05 in1017.6 mb 0.00 in0.0 mm 0.00 in0.0 mm 0.00 in0.0 mm
11:20 AM 59.9°F15.5°C 46.8°F8.2°C 62% 6.0 mph WNW9.7 kmh WNW 11.4 mph18.3 kmh 30.04 in1017.3 mb 0.00 in0.0 mm 0.00 in0.0 mm 0.00 in0.0 mm
11:19 AM 59.9°F15.5°C 47.3°F8.5°C 63% 5.4 mph 8.7 kmh 9.2 mph14.8 kmh 30.05 in1017.6 mb 0.00 in0.0 mm 0.00 in0.0 mm 0.00 in0.0 mm
11:18 AM 59.9°F15.5°C 47.3°F8.5°C 63% 6.9 mph NE11.1 kmh NE 12.1 mph19.5 kmh 30.05 in1017.6 mb 0.00 in0.0 mm 0.00 in0.0 mm 0.00 in0.0 mm
11:17 AM 59.7°F15.4°C 47.5°F8.6°C 64% 6.0 mph 9.7 kmh 9.8 mph15.8 kmh 30.05 in1017.6 mb 0.00 in0.0 mm 0.00 in0.0 mm 0.00 in0.0 mm
11:16 AM 59.5°F15.3°C 46.9°F8.3°C 63% 2.2 mph 3.5 kmh 5.4 mph8.7 kmh 30.05 in1017.6 mb 0.00 in0.0 mm 0.00 in0.0 mm 0.00 in0.0 mm
11:14 AM 59.4°F15.2°C 46.8°F8.2°C 63% 6.0 mph 9.7 kmh 10.7 mph17.2 kmh 30.05 in1017.6 mb 0.00 in0.0 mm 0.00 in0.0 mm 0.00 in0.0 mm
11:13 AM 59.4°F15.2°C 47.1°F8.4°C 64% 6.9 mph NE11.1 kmh NE 9.8 mph15.8 kmh 30.05 in1017.6 mb 0.00 in0.0 mm 0.00 in0.0 mm 0.00 in0.0 mm
11:12 AM 59.4°F15.2°C 47.1°F8.4°C 64% 6.0 mph 9.7 kmh 12.1 mph19.5 kmh 30.05 in1017.6 mb 0.00 in0.0 mm 0.00 in0.0 mm 0.00 in0.0 mm
11:11 AM 59.2°F15.1°C 47.5°F8.6°C 65% 8.3 mph NE13.4 kmh NE 12.1 mph19.5 kmh 30.05 in1017.6 mb 0.00 in0.0 mm 0.00 in0.0 mm 0.00 in0.0 mm
11:10 AM 59.2°F15.1°C 46.9°F8.3°C 64% 4.5 mph NE7.2 kmh NE 10.7 mph17.2 kmh 30.05 in1017.6 mb 0.00 in0.0 mm 0.00 in0.0 mm 0.00 in0.0 mm
11:09 AM 59.0°F15.0°C 47.3°F8.5°C 65% 6.9 mph 11.1 kmh 10.7 mph17.2 kmh 30.05 in1017.6 mb 0.00 in0.0 mm 0.00 in0.0 mm 0.00 in0.0 mm
11:07 AM 59.0°F15.0°C 47.3°F8.5°C 65% 4.5 mph 7.2 kmh 9.2 mph14.8 kmh 30.06 in1017.9 mb 0.00 in0.0 mm 0.00 in0.0 mm 0.00 in0.0 mm
11:06 AM 58.8°F14.9°C 47.5°F8.6°C 66% 6.9 mph 11.1 kmh 9.2 mph14.8 kmh 30.05 in1017.6 mb 0.00 in0.0 mm 0.00 in0.0 mm 0.00 in0.0 mm
11:05 AM 58.6°F14.8°C 47.3°F8.5°C 66% 5.4 mph NE8.7 kmh NE 11.4 mph18.3 kmh 30.06 in1017.9 mb 0.00 in0.0 mm 0.00 in0.0 mm 0.00 in0.0 mm
11:04 AM 58.6°F14.8°C 47.3°F8.5°C 66% 9.2 mph 14.8 kmh 11.4 mph18.3 kmh 30.05 in1017.6 mb 0.00 in0.0 mm 0.00 in0.0 mm 0.00 in0.0 mm
11:03 AM 58.6°F14.8°C 47.3°F8.5°C 66% 5.4 mph 8.7 kmh 11.4 mph18.3 kmh 30.05 in1017.6 mb 0.00 in0.0 mm 0.00 in0.0 mm 0.00 in0.0 mm
11:02 AM 58.5°F14.7°C 47.5°F8.6°C 67% 3.8 mph NE6.1 kmh NE 8.3 mph13.4 kmh 30.05 in1017.6 mb 0.00 in0.0 mm 0.00 in0.0 mm 0.00 in0.0 mm
11:00 AM 58.1°F14.5°C 47.1°F8.4°C 67% 4.5 mph 7.2 kmh 7.6 mph12.2 kmh 30.05 in1017.6 mb 0.00 in0.0 mm 0.00 in0.0 mm 0.00 in0.0 mm
10:59 AM 58.1°F14.5°C 46.8°F8.2°C 66% 5.4 mph 8.7 kmh 11.4 mph18.3 kmh 30.06 in1017.9 mb 0.00 in0.0 mm 0.00 in0.0 mm 0.00 in0.0 mm
10:58 AM 58.1°F14.5°C 46.8°F8.2°C 66% 7.6 mph NE12.2 kmh NE 11.4 mph18.3 kmh 30.06 in1017.9 mb 0.00 in0.0 mm 0.00 in0.0 mm 0.00 in0.0 mm
10:57 AM 58.1°F14.5°C 47.1°F8.4°C 67% 8.3 mph E13.4 kmh E 11.4 mph18.3 kmh 30.05 in1017.6 mb 0.00 in0.0 mm 0.00 in0.0 mm 0.00 in0.0 mm
10:56 AM 58.3°F14.6°C 47.8°F8.8°C 68% 6.9 mph NE11.1 kmh NE 10.7 mph17.2 kmh 30.06 in1017.9 mb 0.00 in0.0 mm 0.00 in0.0 mm 0.00 in0.0 mm
10:54 AM 58.3°F14.6°C 48.2°F9.0°C 69% 6.9 mph 11.1 kmh 11.4 mph18.3 kmh 30.06 in1017.9 mb 0.00 in0.0 mm 0.00 in0.0 mm 0.00 in0.0 mm
10:53 AM 57.7°F14.3°C 48.0°F8.9°C 70% 3.8 mph 6.1 kmh 6.9 mph11.1 kmh 30.06 in1017.9 mb 0.00 in0.0 mm 0.00 in0.0 mm 0.00 in0.0 mm
10:52 AM 57.6°F14.2°C 47.5°F8.6°C 69% 3.1 mph 5.0 kmh 7.6 mph12.2 kmh 30.06 in1017.9 mb 0.00 in0.0 mm 0.00 in0.0 mm 0.00 in0.0 mm
10:51 AM 57.2°F14.0°C 47.1°F8.4°C 69% 5.4 mph NE8.7 kmh NE 7.6 mph12.2 kmh 30.06 in1017.9 mb 0.00 in0.0 mm 0.00 in0.0 mm 0.00 in0.0 mm
10:50 AM 56.8°F13.8°C 47.1°F8.4°C 70% 3.8 mph NE6.1 kmh NE 9.2 mph14.8 kmh 30.06 in1017.9 mb 0.00 in0.0 mm 0.00 in0.0 mm 0.00 in0.0 mm
10:49 AM 56.8°F13.8°C 47.1°F8.4°C 70% 6.0 mph NNE9.7 kmh NNE 9.8 mph15.8 kmh 30.06 in1017.9 mb 0.00 in0.0 mm 0.00 in0.0 mm 0.00 in0.0 mm
10:47 AM 56.8°F13.8°C 47.1°F8.4°C 70% 6.0 mph ENE9.7 kmh ENE 9.8 mph15.8 kmh 30.06 in1017.9 mb 0.00 in0.0 mm 0.00 in0.0 mm 0.00 in0.0 mm
10:46 AM 56.8°F13.8°C 47.5°F8.6°C 71% 5.4 mph 8.7 kmh 8.3 mph13.4 kmh 30.06 in1017.9 mb 0.00 in0.0 mm 0.00 in0.0 mm 0.00 in0.0 mm
10:45 AM 56.8°F13.8°C 47.8°F8.8°C 72% 5.4 mph NE8.7 kmh NE 9.8 mph15.8 kmh 30.06 in1017.9 mb 0.00 in0.0 mm 0.00 in0.0 mm 0.00 in0.0 mm
10:44 AM 56.7°F13.7°C 47.7°F8.7°C 72% 3.8 mph 6.1 kmh 8.3 mph13.4 kmh 30.06 in1017.9 mb 0.00 in0.0 mm 0.00 in0.0 mm 0.00 in0.0 mm
10:43 AM 56.7°F13.7°C 47.7°F8.7°C 72% 3.8 mph NE6.1 kmh NE 6.9 mph11.1 kmh 30.06 in1017.9 mb 0.00 in0.0 mm 0.00 in0.0 mm 0.00 in0.0 mm
10:42 AM 56.7°F13.7°C 47.7°F8.7°C 72% 4.5 mph 7.2 kmh 7.6 mph12.2 kmh 30.06 in1017.9 mb 0.00 in0.0 mm 0.00 in0.0 mm 0.00 in0.0 mm
10:40 AM 56.3°F13.5°C 47.5°F8.6°C 72% 5.4 mph NW8.7 kmh NW 7.6 mph12.2 kmh 30.06 in1017.9 mb 0.00 in0.0 mm 0.00 in0.0 mm 0.00 in0.0 mm
10:39 AM 56.3°F13.5°C 47.8°F8.8°C 73% 4.5 mph 7.2 kmh 6.9 mph11.1 kmh 30.07 in1018.3 mb 0.00 in0.0 mm 0.00 in0.0 mm 0.00 in0.0 mm
10:38 AM 56.1°F13.4°C 47.7°F8.7°C 73% 4.5 mph 7.2 kmh 7.6 mph12.2 kmh 30.07 in1018.3 mb 0.00 in0.0 mm 0.00 in0.0 mm 0.00 in0.0 mm
10:37 AM 55.9°F13.3°C 47.5°F8.6°C 73% 2.2 mph NE3.5 kmh NE 9.2 mph14.8 kmh 30.06 in1017.9 mb 0.00 in0.0 mm 0.00 in0.0 mm 0.00 in0.0 mm
10:36 AM 55.8°F13.2°C 47.3°F8.5°C 73% 5.4 mph 8.7 kmh 10.7 mph17.2 kmh 30.06 in1017.9 mb 0.00 in0.0 mm 0.00 in0.0 mm 0.00 in0.0 mm
10:34 AM 55.8°F13.2°C 47.3°F8.5°C 73% 5.4 mph 8.7 kmh 9.8 mph15.8 kmh 30.07 in1018.3 mb 0.00 in0.0 mm 0.00 in0.0 mm 0.00 in0.0 mm
10:33 AM 55.8°F13.2°C 47.7°F8.7°C 74% 6.0 mph 9.7 kmh 12.1 mph19.5 kmh 30.06 in1017.9 mb 0.00 in0.0 mm 0.00 in0.0 mm 0.00 in0.0 mm
10:32 AM 55.8°F13.2°C 47.7°F8.7°C 74% 7.6 mph NNE12.2 kmh NNE 12.1 mph19.5 kmh 30.06 in1017.9 mb 0.00 in0.0 mm 0.00 in0.0 mm 0.00 in0.0 mm
10:31 AM 55.4°F13.0°C 47.7°F8.7°C 75% 3.1 mph NE5.0 kmh NE 6.9 mph11.1 kmh 30.07 in1018.3 mb 0.00 in0.0 mm 0.00 in0.0 mm 0.00 in0.0 mm
10:30 AM 55.4°F13.0°C 47.7°F8.7°C 75% 4.5 mph 7.2 kmh 6.9 mph11.1 kmh 30.07 in1018.3 mb 0.00 in0.0 mm 0.00 in0.0 mm 0.00 in0.0 mm
10:29 AM 55.0°F12.8°C 48.0°F8.9°C 77% 4.5 mph NE7.2 kmh NE 6.0 mph9.7 kmh 30.07 in1018.3 mb 0.00 in0.0 mm 0.00 in0.0 mm 0.00 in0.0 mm
10:27 AM 54.9°F12.7°C 47.8°F8.8°C 77% 3.1 mph NE5.0 kmh NE 5.4 mph8.7 kmh 30.07 in1018.3 mb 0.00 in0.0 mm 0.00 in0.0 mm 0.00 in0.0 mm
10:26 AM 54.5°F12.5°C 47.5°F8.6°C 77% 3.8 mph 6.1 kmh 5.4 mph8.7 kmh 30.07 in1018.3 mb 0.00 in0.0 mm 0.00 in0.0 mm 0.00 in0.0 mm
10:25 AM 54.3°F12.4°C 47.3°F8.5°C 77% 2.2 mph NE3.5 kmh NE 5.4 mph8.7 kmh 30.07 in1018.3 mb 0.00 in0.0 mm 0.00 in0.0 mm 0.00 in0.0 mm
10:24 AM 54.3°F12.4°C 47.7°F8.7°C 78% 6.9 mph NE11.1 kmh NE 8.3 mph13.4 kmh 30.07 in1018.3 mb 0.00 in0.0 mm 0.00 in0.0 mm 0.00 in0.0 mm
10:23 AM 54.1°F12.3°C 47.5°F8.6°C 78% 3.1 mph NE5.0 kmh NE 5.4 mph8.7 kmh 30.07 in1018.3 mb 0.00 in0.0 mm 0.00 in0.0 mm 0.00 in0.0 mm
10:22 AM 54.0°F12.2°C 47.3°F8.5°C 78% 2.2 mph NE3.5 kmh NE 6.0 mph9.7 kmh 30.07 in1018.3 mb 0.00 in0.0 mm 0.00 in0.0 mm 0.00 in0.0 mm
10:20 AM 53.8°F12.1°C 47.1°F8.4°C 78% 4.5 mph NE7.2 kmh NE 6.9 mph11.1 kmh 30.07 in1018.3 mb 0.00 in0.0 mm 0.00 in0.0 mm 0.00 in0.0 mm
10:19 AM 53.8°F12.1°C 47.1°F8.4°C 78% 6.0 mph NE9.7 kmh NE 7.6 mph12.2 kmh 30.07 in1018.3 mb 0.00 in0.0 mm 0.00 in0.0 mm 0.00 in0.0 mm
10:18 AM 53.8°F12.1°C 47.1°F8.4°C 78% 4.5 mph 7.2 kmh 6.9 mph11.1 kmh 30.07 in1018.3 mb 0.00 in0.0 mm 0.00 in0.0 mm 0.00 in0.0 mm
10:17 AM 53.8°F12.1°C 47.5°F8.6°C 79% 5.4 mph NNE8.7 kmh NNE 6.0 mph9.7 kmh 30.07 in1018.3 mb 0.00 in0.0 mm 0.00 in0.0 mm 0.00 in0.0 mm
10:16 AM 53.6°F12.0°C 47.3°F8.5°C 79% 3.1 mph NE5.0 kmh NE 6.9 mph11.1 kmh 30.07 in1018.3 mb 0.00 in0.0 mm 0.00 in0.0 mm 0.00 in0.0 mm
10:15 AM 53.4°F11.9°C 47.5°F8.6°C 80% 2.2 mph NE3.5 kmh NE 4.5 mph7.2 kmh 30.07 in1018.3 mb 0.00 in0.0 mm 0.00 in0.0 mm 0.00 in0.0 mm
10:13 AM 53.2°F11.8°C 47.3°F8.5°C 80% 3.1 mph NE5.0 kmh NE 4.5 mph7.2 kmh 30.08 in1018.6 mb 0.00 in0.0 mm 0.00 in0.0 mm 0.00 in0.0 mm
10:12 AM 53.1°F11.7°C 47.3°F8.5°C 81% 3.1 mph NE5.0 kmh NE 4.5 mph7.2 kmh 30.07 in1018.3 mb 0.00 in0.0 mm 0.00 in0.0 mm 0.00 in0.0 mm
10:10 AM 52.9°F11.6°C 47.3°F8.5°C 81% 5.4 mph NE8.7 kmh NE 6.9 mph11.1 kmh 30.07 in1018.3 mb 0.00 in0.0 mm 0.00 in0.0 mm 0.00 in0.0 mm
10:09 AM 52.7°F11.5°C 47.3°F8.5°C 82% 3.1 mph NE5.0 kmh NE 6.0 mph9.7 kmh 30.07 in1018.3 mb 0.00 in0.0 mm 0.00 in0.0 mm 0.00 in0.0 mm
10:08 AM 52.5°F11.4°C 47.1°F8.4°C 82% 3.1 mph 5.0 kmh 4.5 mph7.2 kmh 30.07 in1018.3 mb 0.00 in0.0 mm 0.00 in0.0 mm 0.00 in0.0 mm
10:07 AM 52.3°F11.3°C 46.9°F8.3°C 82% 2.2 mph NE3.5 kmh NE 5.4 mph8.7 kmh 30.08 in1018.6 mb 0.00 in0.0 mm 0.00 in0.0 mm 0.00 in0.0 mm
10:06 AM 52.2°F11.2°C 46.8°F8.2°C 82% 3.1 mph NE5.0 kmh NE 6.9 mph11.1 kmh 30.07 in1018.3 mb 0.00 in0.0 mm 0.00 in0.0 mm 0.00 in0.0 mm
10:05 AM 52.0°F11.1°C 46.6°F8.1°C 82% 4.5 mph NE7.2 kmh NE 6.9 mph11.1 kmh 30.07 in1018.3 mb 0.00 in0.0 mm 0.00 in0.0 mm 0.00 in0.0 mm
10:03 AM 51.8°F11.0°C 46.4°F8.0°C 82% 3.1 mph NE5.0 kmh NE 4.5 mph7.2 kmh 30.07 in1018.3 mb 0.00 in0.0 mm 0.00 in0.0 mm 0.00 in0.0 mm
10:02 AM 51.4°F10.8°C 46.4°F8.0°C 83% 2.2 mph NE3.5 kmh NE 3.8 mph6.1 kmh 30.07 in1018.3 mb 0.00 in0.0 mm 0.00 in0.0 mm 0.00 in0.0 mm
10:01 AM 51.4°F10.8°C 46.4°F8.0°C 83% 3.1 mph NE5.0 kmh NE 5.4 mph8.7 kmh 30.06 in1017.9 mb 0.00 in0.0 mm 0.00 in0.0 mm 0.00 in0.0 mm
10:00 AM 51.3°F10.7°C 46.6°F8.1°C 84% 4.5 mph NE7.2 kmh NE 5.4 mph8.7 kmh 30.06 in1017.9 mb 0.00 in0.0 mm 0.00 in0.0 mm 0.00 in0.0 mm
09:58 AM 51.3°F10.7°C 46.6°F8.1°C 84% 3.8 mph NE6.1 kmh NE 5.4 mph8.7 kmh 30.06 in1017.9 mb 0.00 in0.0 mm 0.00 in0.0 mm 0.00 in0.0 mm
09:57 AM 51.1°F10.6°C 46.4°F8.0°C 84% 3.1 mph ENE5.0 kmh ENE 4.5 mph7.2 kmh 30.06 in1017.9 mb 0.00 in0.0 mm 0.00 in0.0 mm 0.00 in0.0 mm
09:56 AM 51.1°F10.6°C 46.4°F8.0°C 84% 2.2 mph NE3.5 kmh NE 3.8 mph6.1 kmh 30.07 in1018.3 mb 0.00 in0.0 mm 0.00 in0.0 mm 0.00 in0.0 mm
09:55 AM 50.9°F10.5°C 46.2°F7.9°C 84% 3.1 mph NE5.0 kmh NE 6.0 mph9.7 kmh 30.06 in1017.9 mb 0.00 in0.0 mm 0.00 in0.0 mm 0.00 in0.0 mm
09:54 AM 50.9°F10.5°C 46.2°F7.9°C 84% 3.1 mph NE5.0 kmh NE 4.5 mph7.2 kmh 30.06 in1017.9 mb 0.00 in0.0 mm 0.00 in0.0 mm 0.00 in0.0 mm
09:53 AM 50.7°F10.4°C 46.0°F7.8°C 84% 2.2 mph NE3.5 kmh NE 6.0 mph9.7 kmh 30.06 in1017.9 mb 0.00 in0.0 mm 0.00 in0.0 mm 0.00 in0.0 mm
09:51 AM 50.7°F10.4°C 46.0°F7.8°C 84% 3.1 mph NE5.0 kmh NE 6.0 mph9.7 kmh 30.07 in1018.3 mb 0.00 in0.0 mm 0.00 in0.0 mm 0.00 in0.0 mm
09:50 AM 50.7°F10.4°C 46.0°F7.8°C 84% 2.2 mph NE3.5 kmh NE 5.4 mph8.7 kmh 30.07 in1018.3 mb 0.00 in0.0 mm 0.00 in0.0 mm 0.00 in0.0 mm
09:49 AM 50.7°F10.4°C 46.0°F7.8°C 84% 3.1 mph NE5.0 kmh NE 6.0 mph9.7 kmh 30.06 in1017.9 mb 0.00 in0.0 mm 0.00 in0.0 mm 0.00 in0.0 mm
09:48 AM 50.7°F10.4°C 46.4°F8.0°C 85% 3.1 mph NE5.0 kmh NE 5.4 mph8.7 kmh 30.06 in1017.9 mb 0.00 in0.0 mm 0.00 in0.0 mm 0.00 in0.0 mm
09:47 AM 50.7°F10.4°C 46.4°F8.0°C 85% 3.8 mph NE6.1 kmh NE 6.0 mph9.7 kmh 30.06 in1017.9 mb 0.00 in0.0 mm 0.00 in0.0 mm 0.00 in0.0 mm
09:45 AM 50.5°F10.3°C 46.2°F7.9°C 85% 3.8 mph NE6.1 kmh NE 6.9 mph11.1 kmh 30.06 in1017.9 mb 0.00 in0.0 mm 0.00 in0.0 mm 0.00 in0.0 mm
09:43 AM 50.4°F10.2°C 46.0°F7.8°C 85% 3.1 mph 5.0 kmh 4.5 mph7.2 kmh 30.06 in1017.9 mb 0.00 in0.0 mm 0.00 in0.0 mm 0.00 in0.0 mm
09:42 AM 50.2°F10.1°C 46.2°F7.9°C 86% 3.1 mph NE5.0 kmh NE 6.9 mph11.1 kmh 30.06 in1017.9 mb 0.00 in0.0 mm 0.00 in0.0 mm 0.00 in0.0 mm
09:41 AM 50.2°F10.1°C 46.2°F7.9°C 86% 3.1 mph NE5.0 kmh NE 6.0 mph9.7 kmh 30.06 in1017.9 mb 0.00 in0.0 mm 0.00 in0.0 mm 0.00 in0.0 mm
09:40 AM 50.0°F10.0°C 46.0°F7.8°C 86% 4.5 mph NE7.2 kmh NE 6.0 mph9.7 kmh 30.06 in1017.9 mb 0.00 in0.0 mm 0.00 in0.0 mm 0.00 in0.0 mm
09:38 AM 50.0°F10.0°C 46.0°F7.8°C 86% 3.8 mph NE6.1 kmh NE 6.0 mph9.7 kmh 30.07 in1018.3 mb 0.00 in0.0 mm 0.00 in0.0 mm 0.00 in0.0 mm
09:37 AM 49.8°F9.9°C 46.4°F8.0°C 88% 3.8 mph NE6.1 kmh NE 6.0 mph9.7 kmh 30.06 in1017.9 mb 0.00 in0.0 mm 0.00 in0.0 mm 0.00 in0.0 mm
09:36 AM 49.6°F9.8°C 46.2°F7.9°C 88% 2.2 mph NE3.5 kmh NE 6.0 mph9.7 kmh 30.07 in1018.3 mb 0.00 in0.0 mm 0.00 in0.0 mm 0.00 in0.0 mm
09:35 AM 49.5°F9.7°C 46.0°F7.8°C 88% 3.8 mph NE6.1 kmh NE 6.0 mph9.7 kmh 30.07 in1018.3 mb 0.00 in0.0 mm 0.00 in0.0 mm 0.00 in0.0 mm
09:34 AM 49.5°F9.7°C 46.0°F7.8°C 88% 2.2 mph NE3.5 kmh NE 6.9 mph11.1 kmh 30.06 in1017.9 mb 0.00 in0.0 mm 0.00 in0.0 mm 0.00 in0.0 mm
09:33 AM 49.5°F9.7°C 46.4°F8.0°C 89% 3.8 mph NE6.1 kmh NE 6.9 mph11.1 kmh 30.07 in1018.3 mb 0.00 in0.0 mm 0.00 in0.0 mm 0.00 in0.0 mm
09:31 AM 49.3°F9.6°C 46.2°F7.9°C 89% 3.8 mph NNE6.1 kmh NNE 6.9 mph11.1 kmh 30.06 in1017.9 mb 0.00 in0.0 mm 0.00 in0.0 mm 0.00 in0.0 mm
09:30 AM 49.1°F9.5°C 46.0°F7.8°C 89% 3.8 mph NE6.1 kmh NE 6.0 mph9.7 kmh 30.06 in1017.9 mb 0.00 in0.0 mm 0.00 in0.0 mm 0.00 in0.0 mm
09:29 AM 49.1°F9.5°C 46.2°F7.9°C 90% 3.1 mph NE5.0 kmh NE 4.5 mph7.2 kmh 30.06 in1017.9 mb 0.00 in0.0 mm 0.00 in0.0 mm 0.00 in0.0 mm
09:28 AM 48.9°F9.4°C 46.0°F7.8°C 90% 3.1 mph NE5.0 kmh NE 3.8 mph6.1 kmh 30.06 in1017.9 mb 0.00 in0.0 mm 0.00 in0.0 mm 0.00 in0.0 mm
09:27 AM 48.7°F9.3°C 45.9°F7.7°C 90% 2.2 mph NE3.5 kmh NE 7.6 mph12.2 kmh 30.06 in1017.9 mb 0.00 in0.0 mm 0.00 in0.0 mm 0.00 in0.0 mm
09:26 AM 48.6°F9.2°C 45.7°F7.6°C 90% 3.8 mph NE6.1 kmh NE 6.9 mph11.1 kmh 30.06 in1017.9 mb 0.00 in0.0 mm 0.00 in0.0 mm 0.00 in0.0 mm
09:24 AM 48.4°F9.1°C 45.5°F7.5°C 90% 3.8 mph NE6.1 kmh NE 6.0 mph9.7 kmh 30.06 in1017.9 mb 0.00 in0.0 mm 0.00 in0.0 mm 0.00 in0.0 mm
09:23 AM 48.4°F9.1°C 45.5°F7.5°C 90% 2.2 mph NE3.5 kmh NE 5.4 mph8.7 kmh 30.06 in1017.9 mb 0.00 in0.0 mm 0.00 in0.0 mm 0.00 in0.0 mm
09:22 AM 48.2°F9.0°C 45.3°F7.4°C 90% 3.8 mph NE6.1 kmh NE 6.0 mph9.7 kmh 30.06 in1017.9 mb 0.00 in0.0 mm 0.00 in0.0 mm 0.00 in0.0 mm
09:21 AM 48.2°F9.0°C 45.7°F7.6°C 91% 4.5 mph NE7.2 kmh NE 6.9 mph11.1 kmh 30.06 in1017.9 mb 0.00 in0.0 mm 0.00 in0.0 mm 0.00 in0.0 mm
09:20 AM 48.2°F9.0°C 45.7°F7.6°C 91% 3.8 mph NE6.1 kmh NE 5.4 mph8.7 kmh 30.07 in1018.3 mb 0.00 in0.0 mm 0.00 in0.0 mm 0.00 in0.0 mm
09:17 AM 48.0°F8.9°C 45.9°F7.7°C 92% 5.4 mph E8.7 kmh E 6.0 mph9.7 kmh 30.06 in1017.9 mb 0.00 in0.0 mm 0.00 in0.0 mm 0.00 in0.0 mm
09:16 AM 48.0°F8.9°C 45.9°F7.7°C 92% 3.8 mph NE6.1 kmh NE 6.0 mph9.7 kmh 30.07 in1018.3 mb 0.00 in0.0 mm 0.00 in0.0 mm 0.00 in0.0 mm
09:15 AM 48.0°F8.9°C 45.9°F7.7°C 92% 3.8 mph NE6.1 kmh NE 6.0 mph9.7 kmh 30.06 in1017.9 mb 0.00 in0.0 mm 0.00 in0.0 mm 0.00 in0.0 mm
09:14 AM 47.8°F8.8°C 45.7°F7.6°C 92% 3.8 mph NE6.1 kmh NE 5.4 mph8.7 kmh 30.06 in1017.9 mb 0.00 in0.0 mm 0.00 in0.0 mm 0.00 in0.0 mm
09:13 AM 47.7°F8.7°C 45.7°F7.6°C 93% 3.8 mph NE6.1 kmh NE 5.4 mph8.7 kmh 30.06 in1017.9 mb 0.00 in0.0 mm 0.00 in0.0 mm 0.00 in0.0 mm
09:11 AM 47.7°F8.7°C 45.7°F7.6°C 93% 3.1 mph NE5.0 kmh NE 6.9 mph11.1 kmh 30.06 in1017.9 mb 0.00 in0.0 mm 0.00 in0.0 mm 0.00 in0.0 mm
09:10 AM 47.5°F8.6°C 45.5°F7.5°C 93% 4.5 mph NE7.2 kmh NE 6.9 mph11.1 kmh 30.07 in1018.3 mb 0.00 in0.0 mm 0.00 in0.0 mm 0.00 in0.0 mm
09:09 AM 47.3°F8.5°C 45.3°F7.4°C 93% 3.8 mph ENE6.1 kmh ENE 6.9 mph11.1 kmh 30.07 in1018.3 mb 0.00 in0.0 mm 0.00 in0.0 mm 0.00 in0.0 mm
09:08 AM 47.3°F8.5°C 45.3°F7.4°C 93% 3.1 mph NE5.0 kmh NE 4.5 mph7.2 kmh 30.06 in1017.9 mb 0.00 in0.0 mm 0.00 in0.0 mm 0.00 in0.0 mm
09:07 AM 47.3°F8.5°C 45.3°F7.4°C 93% 3.8 mph NE6.1 kmh NE 6.9 mph11.1 kmh 30.07 in1018.3 mb 0.00 in0.0 mm 0.00 in0.0 mm 0.00 in0.0 mm
09:06 AM 47.1°F8.4°C 45.1°F7.3°C 93% 2.2 mph NE3.5 kmh NE 3.8 mph6.1 kmh 30.06 in1017.9 mb 0.00 in0.0 mm 0.00 in0.0 mm 0.00 in0.0 mm
09:04 AM 46.9°F8.3°C 45.0°F7.2°C 93% 2.2 mph NE3.5 kmh NE 5.4 mph8.7 kmh 30.07 in1018.3 mb 0.00 in0.0 mm 0.00 in0.0 mm 0.00 in0.0 mm
09:03 AM 46.9°F8.3°C 45.0°F7.2°C 93% 5.4 mph NE8.7 kmh NE 7.6 mph12.2 kmh 30.06 in1017.9 mb 0.00 in0.0 mm 0.00 in0.0 mm 0.00 in0.0 mm
09:02 AM 46.9°F8.3°C 45.0°F7.2°C 93% 2.2 mph NE3.5 kmh NE 4.5 mph7.2 kmh 30.07 in1018.3 mb 0.00 in0.0 mm 0.00 in0.0 mm 0.00 in0.0 mm
09:01 AM 46.9°F8.3°C 45.3°F7.4°C 94% 4.5 mph NE7.2 kmh NE 6.0 mph9.7 kmh 30.06 in1017.9 mb 0.00 in0.0 mm 0.00 in0.0 mm 0.00 in0.0 mm
09:00 AM 46.9°F8.3°C 45.3°F7.4°C 94% 3.8 mph NE6.1 kmh NE 6.0 mph9.7 kmh 30.07 in1018.3 mb 0.00 in0.0 mm 0.00 in0.0 mm 0.00 in0.0 mm
08:58 AM 46.8°F8.2°C 45.1°F7.3°C 94% 3.8 mph NE6.1 kmh NE 7.6 mph12.2 kmh 30.06 in1017.9 mb 0.00 in0.0 mm 0.00 in0.0 mm 0.00 in0.0 mm
08:57 AM 46.8°F8.2°C 45.1°F7.3°C 94% 3.8 mph 6.1 kmh 7.6 mph12.2 kmh 30.06 in1017.9 mb 0.00 in0.0 mm 0.00 in0.0 mm 0.00 in0.0 mm
08:56 AM 46.6°F8.1°C 45.0°F7.2°C 94% 3.8 mph NE6.1 kmh NE 5.4 mph8.7 kmh 30.06 in1017.9 mb 0.00 in0.0 mm 0.00 in0.0 mm 0.00 in0.0 mm
08:55 AM 46.6°F8.1°C 45.0°F7.2°C 94% 3.1 mph NE5.0 kmh NE 5.4 mph8.7 kmh 30.06 in1017.9 mb 0.00 in0.0 mm 0.00 in0.0 mm 0.00 in0.0 mm
08:54 AM 46.6°F8.1°C 45.0°F7.2°C 94% 2.2 mph NE3.5 kmh NE 4.5 mph7.2 kmh 30.06 in1017.9 mb 0.00 in0.0 mm 0.00 in0.0 mm 0.00 in0.0 mm
08:53 AM 46.6°F8.1°C 45.0°F7.2°C 94% 3.1 mph NE5.0 kmh NE 4.5 mph7.2 kmh 30.06 in1017.9 mb 0.00 in0.0 mm 0.00 in0.0 mm 0.00 in0.0 mm
08:51 AM 46.2°F7.9°C 45.1°F7.3°C 96% 2.2 mph NE3.5 kmh NE 6.9 mph11.1 kmh 30.06 in1017.9 mb 0.00 in0.0 mm 0.00 in0.0 mm 0.00 in0.0 mm
08:50 AM 46.2°F7.9°C 45.1°F7.3°C 96% 4.5 mph E7.2 kmh E 6.9 mph11.1 kmh 30.06 in1017.9 mb 0.00 in0.0 mm 0.00 in0.0 mm 0.00 in0.0 mm
08:49 AM 46.2°F7.9°C 45.1°F7.3°C 96% 4.5 mph NE7.2 kmh NE 6.0 mph9.7 kmh 30.06 in1017.9 mb 0.00 in0.0 mm 0.00 in0.0 mm 0.00 in0.0 mm
08:48 AM 46.2°F7.9°C 45.1°F7.3°C 96% 2.2 mph NE3.5 kmh NE 4.5 mph7.2 kmh 30.06 in1017.9 mb 0.00 in0.0 mm 0.00 in0.0 mm 0.00 in0.0 mm
08:47 AM 46.2°F7.9°C 45.1°F7.3°C 96% 3.1 mph NE5.0 kmh NE 6.0 mph9.7 kmh 30.06 in1017.9 mb 0.00 in0.0 mm 0.00 in0.0 mm 0.00 in0.0 mm
08:44 AM 46.0°F7.8°C 45.0°F7.2°C 96% 6.0 mph NE9.7 kmh NE 7.6 mph12.2 kmh 30.06 in1017.9 mb 0.00 in0.0 mm 0.00 in0.0 mm 0.00 in0.0 mm
08:43 AM 46.0°F7.8°C 45.3°F7.4°C 97% 3.8 mph NE6.1 kmh NE 6.9 mph11.1 kmh 30.06 in1017.9 mb 0.00 in0.0 mm 0.00 in0.0 mm 0.00 in0.0 mm
08:42 AM 46.0°F7.8°C 45.3°F7.4°C 97% 3.1 mph NE5.0 kmh NE 5.4 mph8.7 kmh 30.06 in1017.9 mb 0.00 in0.0 mm 0.00 in0.0 mm 0.00 in0.0 mm
08:41 AM 45.9°F7.7°C 45.1°F7.3°C 97% 3.1 mph NE5.0 kmh NE 5.4 mph8.7 kmh 30.06 in1017.9 mb 0.00 in0.0 mm 0.00 in0.0 mm 0.00 in0.0 mm
08:40 AM 45.9°F7.7°C 45.1°F7.3°C 97% 3.8 mph NE6.1 kmh NE 6.0 mph9.7 kmh 30.06 in1017.9 mb 0.00 in0.0 mm 0.00 in0.0 mm 0.00 in0.0 mm
08:39 AM 45.9°F7.7°C 45.1°F7.3°C 97% 2.2 mph NE3.5 kmh NE 5.4 mph8.7 kmh 30.06 in1017.9 mb 0.00 in0.0 mm 0.00 in0.0 mm 0.00 in0.0 mm
08:37 AM 45.9°F7.7°C 45.1°F7.3°C 97% 3.1 mph NE5.0 kmh NE 4.5 mph7.2 kmh 30.06 in1017.9 mb 0.00 in0.0 mm 0.00 in0.0 mm 0.00 in0.0 mm
08:36 AM 45.9°F7.7°C 45.1°F7.3°C 97% 2.2 mph NE3.5 kmh NE 6.0 mph9.7 kmh 30.06 in1017.9 mb 0.00 in0.0 mm 0.00 in0.0 mm 0.00 in0.0 mm
08:35 AM 45.7°F7.6°C 45.0°F7.2°C 97% 3.8 mph ENE6.1 kmh ENE 6.0 mph9.7 kmh 30.06 in1017.9 mb 0.00 in0.0 mm 0.00 in0.0 mm 0.00 in0.0 mm
08:34 AM 45.7°F7.6°C 45.0°F7.2°C 97% 3.1 mph NE5.0 kmh NE 4.5 mph7.2 kmh 30.06 in1017.9 mb 0.00 in0.0 mm 0.00 in0.0 mm 0.00 in0.0 mm
08:33 AM 45.5°F7.5°C 44.8°F7.1°C 97% 2.2 mph NE3.5 kmh NE 4.5 mph7.2 kmh 30.05 in1017.6 mb 0.00 in0.0 mm 0.00 in0.0 mm 0.00 in0.0 mm
08:31 AM 45.5°F7.5°C 44.8°F7.1°C 97% 3.1 mph NE5.0 kmh NE 4.5 mph7.2 kmh 30.06 in1017.9 mb 0.00 in0.0 mm 0.00 in0.0 mm 0.00 in0.0 mm
08:30 AM 45.5°F7.5°C 44.8°F7.1°C 97% 1.6 mph NE2.6 kmh NE 3.1 mph5.0 kmh 30.05 in1017.6 mb 0.00 in0.0 mm 0.00 in0.0 mm 0.00 in0.0 mm
08:29 AM 45.3°F7.4°C 44.6°F7.0°C 97% 2.2 mph NE3.5 kmh NE 3.1 mph5.0 kmh 30.06 in1017.9 mb 0.00 in0.0 mm 0.00 in0.0 mm 0.00 in0.0 mm
08:28 AM 45.3°F7.4°C 44.6°F7.0°C 97% 3.1 mph NE5.0 kmh NE 4.5 mph7.2 kmh 30.06 in1017.9 mb 0.00 in0.0 mm 0.00 in0.0 mm 0.00 in0.0 mm
08:27 AM 45.1°F7.3°C 44.4°F6.9°C 97% 3.1 mph NE5.0 kmh NE 4.5 mph7.2 kmh 30.06 in1017.9 mb 0.00 in0.0 mm 0.00 in0.0 mm 0.00 in0.0 mm
08:26 AM 45.1°F7.3°C 44.4°F6.9°C 97% 1.6 mph NE2.6 kmh NE 5.4 mph8.7 kmh 30.06 in1017.9 mb 0.00 in0.0 mm 0.00 in0.0 mm 0.00 in0.0 mm
08:24 AM 45.1°F7.3°C 44.4°F6.9°C 97% 3.8 mph NE6.1 kmh NE 5.4 mph8.7 kmh 30.06 in1017.9 mb 0.00 in0.0 mm 0.00 in0.0 mm 0.00 in0.0 mm
08:23 AM 45.1°F7.3°C 44.4°F6.9°C 97% 3.1 mph NE5.0 kmh NE 5.4 mph8.7 kmh 30.06 in1017.9 mb 0.00 in0.0 mm 0.00 in0.0 mm 0.00 in0.0 mm
08:22 AM 45.0°F7.2°C 44.2°F6.8°C 97% 3.1 mph NE5.0 kmh NE 5.4 mph8.7 kmh 30.06 in1017.9 mb 0.00 in0.0 mm 0.00 in0.0 mm 0.00 in0.0 mm
08:21 AM 45.0°F7.2°C 44.2°F6.8°C 97% 2.2 mph NE3.5 kmh NE 5.4 mph8.7 kmh 30.06 in1017.9 mb 0.00 in0.0 mm 0.00 in0.0 mm 0.00 in0.0 mm
08:20 AM 45.0°F7.2°C 44.2°F6.8°C 97% 3.8 mph NE6.1 kmh NE 5.4 mph8.7 kmh 30.05 in1017.6 mb 0.00 in0.0 mm 0.00 in0.0 mm 0.00 in0.0 mm
08:19 AM 45.0°F7.2°C 44.2°F6.8°C 97% 3.1 mph NE5.0 kmh NE 6.0 mph9.7 kmh 30.06 in1017.9 mb 0.00 in0.0 mm 0.00 in0.0 mm 0.00 in0.0 mm
08:17 AM 45.0°F7.2°C 44.2°F6.8°C 97% 4.5 mph NE7.2 kmh NE 6.0 mph9.7 kmh 30.05 in1017.6 mb 0.00 in0.0 mm 0.00 in0.0 mm 0.00 in0.0 mm
08:16 AM 45.0°F7.2°C 44.2°F6.8°C 97% 4.5 mph NE7.2 kmh NE 6.9 mph11.1 kmh 30.06 in1017.9 mb 0.00 in0.0 mm 0.00 in0.0 mm 0.00 in0.0 mm
08:15 AM 45.0°F7.2°C 44.2°F6.8°C 97% 4.5 mph NE7.2 kmh NE 6.9 mph11.1 kmh 30.06 in1017.9 mb 0.00 in0.0 mm 0.00 in0.0 mm 0.00 in0.0 mm
08:14 AM 45.0°F7.2°C 44.2°F6.8°C 97% 3.1 mph NE5.0 kmh NE 6.0 mph9.7 kmh 30.06 in1017.9 mb 0.00 in0.0 mm 0.00 in0.0 mm 0.00 in0.0 mm
08:13 AM 45.0°F7.2°C 44.2°F6.8°C 97% 3.1 mph NE5.0 kmh NE 4.5 mph7.2 kmh 30.06 in1017.9 mb 0.00 in0.0 mm 0.00 in0.0 mm 0.00 in0.0 mm
08:11 AM 45.0°F7.2°C 44.2°F6.8°C 97% 3.8 mph NE6.1 kmh NE 4.5 mph7.2 kmh 30.06 in1017.9 mb 0.00 in0.0 mm 0.00 in0.0 mm 0.00 in0.0 mm
08:10 AM 45.0°F7.2°C 44.2°F6.8°C 97% 3.1 mph NE5.0 kmh NE 4.5 mph7.2 kmh 30.06 in1017.9 mb 0.00 in0.0 mm 0.00 in0.0 mm 0.00 in0.0 mm
08:09 AM 44.8°F7.1°C 44.1°F6.7°C 97% 3.1 mph NE5.0 kmh NE 5.4 mph8.7 kmh 30.06 in1017.9 mb 0.00 in0.0 mm 0.00 in0.0 mm 0.00 in0.0 mm
08:08 AM 44.8°F7.1°C 44.1°F6.7°C 97% 3.1 mph NE5.0 kmh NE 4.5 mph7.2 kmh 30.06 in1017.9 mb 0.00 in0.0 mm 0.00 in0.0 mm 0.00 in0.0 mm
08:07 AM 44.8°F7.1°C 44.1°F6.7°C 97% 3.1 mph NE5.0 kmh NE 4.5 mph7.2 kmh 30.06 in1017.9 mb 0.00 in0.0 mm 0.00 in0.0 mm 0.00 in0.0 mm
08:06 AM 44.8°F7.1°C 44.1°F6.7°C 97% 3.1 mph NE5.0 kmh NE 4.5 mph7.2 kmh 30.06 in1017.9 mb 0.00 in0.0 mm 0.00 in0.0 mm 0.00 in0.0 mm
08:04 AM 44.8°F7.1°C 44.1°F6.7°C 97% 3.1 mph NE5.0 kmh NE 3.8 mph6.1 kmh 30.06 in1017.9 mb 0.00 in0.0 mm 0.00 in0.0 mm 0.00 in0.0 mm
08:03 AM 44.8°F7.1°C 44.1°F6.7°C 97% 2.2 mph NE3.5 kmh NE 3.8 mph6.1 kmh 30.06 in1017.9 mb 0.00 in0.0 mm 0.00 in0.0 mm 0.00 in0.0 mm
08:02 AM 44.6°F7.0°C 43.9°F6.6°C 97% 2.2 mph NE3.5 kmh NE 4.5 mph7.2 kmh 30.06 in1017.9 mb 0.00 in0.0 mm 0.00 in0.0 mm 0.00 in0.0 mm
08:01 AM 44.6°F7.0°C 43.9°F6.6°C 97% 3.1 mph NE5.0 kmh NE 4.5 mph7.2 kmh 30.06 in1017.9 mb 0.00 in0.0 mm 0.00 in0.0 mm 0.00 in0.0 mm
08:00 AM 44.6°F7.0°C 43.9°F6.6°C 97% 2.2 mph NE3.5 kmh NE 4.5 mph7.2 kmh 30.06 in1017.9 mb 0.00 in0.0 mm 0.00 in0.0 mm 0.00 in0.0 mm
07:59 AM 44.6°F7.0°C 43.9°F6.6°C 97% 3.8 mph NE6.1 kmh NE 4.5 mph7.2 kmh 30.06 in1017.9 mb 0.00 in0.0 mm 0.00 in0.0 mm 0.00 in0.0 mm
07:57 AM 44.6°F7.0°C 43.9°F6.6°C 97% 2.2 mph NE3.5 kmh NE 3.8 mph6.1 kmh 30.06 in1017.9 mb 0.00 in0.0 mm 0.00 in0.0 mm 0.00 in0.0 mm
07:56 AM 44.6°F7.0°C 43.9°F6.6°C 97% 2.2 mph NE3.5 kmh NE 5.4 mph8.7 kmh 30.06 in1017.9 mb 0.00 in0.0 mm 0.00 in0.0 mm 0.00 in0.0 mm
07:55 AM 44.6°F7.0°C 43.9°F6.6°C 97% 2.2 mph NE3.5 kmh NE 4.5 mph7.2 kmh 30.06 in1017.9 mb 0.00 in0.0 mm 0.00 in0.0 mm 0.00 in0.0 mm
07:54 AM 44.6°F7.0°C 43.9°F6.6°C 97% 2.2 mph NE3.5 kmh NE 4.5 mph7.2 kmh 30.06 in1017.9 mb 0.00 in0.0 mm 0.00 in0.0 mm 0.00 in0.0 mm
07:53 AM 44.6°F7.0°C 43.9°F6.6°C 97% 2.2 mph NE3.5 kmh NE 5.4 mph8.7 kmh 30.06 in1017.9 mb 0.00 in0.0 mm 0.00 in0.0 mm 0.00 in0.0 mm
07:52 AM 44.6°F7.0°C 43.9°F6.6°C 97% 4.5 mph NE7.2 kmh NE 5.4 mph8.7 kmh 30.06 in1017.9 mb 0.00 in0.0 mm 0.00 in0.0 mm 0.00 in0.0 mm
07:50 AM 44.6°F7.0°C 43.9°F6.6°C 97% 3.1 mph NE5.0 kmh NE 5.4 mph8.7 kmh 30.06 in1017.9 mb 0.00 in0.0 mm 0.00 in0.0 mm 0.00 in0.0 mm
07:49 AM 44.6°F7.0°C 43.9°F6.6°C 97% 3.1 mph NE5.0 kmh NE 5.4 mph8.7 kmh 30.05 in1017.6 mb 0.00 in0.0 mm 0.00 in0.0 mm 0.00 in0.0 mm
07:48 AM 44.6°F7.0°C 43.9°F6.6°C 97% 4.5 mph NE7.2 kmh NE 5.4 mph8.7 kmh 30.05 in1017.6 mb 0.00 in0.0 mm 0.00 in0.0 mm 0.00 in0.0 mm
07:47 AM 44.6°F7.0°C 43.9°F6.6°C 97% 2.2 mph NE3.5 kmh NE 3.8 mph6.1 kmh 30.05 in1017.6 mb 0.00 in0.0 mm 0.00 in0.0 mm 0.00 in0.0 mm
07:46 AM 44.6°F7.0°C 43.5°F6.4°C 96% 3.1 mph NE5.0 kmh NE 4.5 mph7.2 kmh 30.05 in1017.6 mb 0.00 in0.0 mm 0.00 in0.0 mm 0.00 in0.0 mm
07:44 AM 44.6°F7.0°C 43.5°F6.4°C 96% 3.1 mph NE5.0 kmh NE 5.4 mph8.7 kmh 30.06 in1017.9 mb 0.00 in0.0 mm 0.00 in0.0 mm 0.00 in0.0 mm
07:43 AM 44.6°F7.0°C 43.5°F6.4°C 96% 2.2 mph NE3.5 kmh NE 3.8 mph6.1 kmh 30.05 in1017.6 mb 0.00 in0.0 mm 0.00 in0.0 mm 0.00 in0.0 mm
07:42 AM 44.8°F7.1°C 43.7°F6.5°C 96% 2.2 mph NE3.5 kmh NE 4.5 mph7.2 kmh 30.05 in1017.6 mb 0.00 in0.0 mm 0.00 in0.0 mm 0.00 in0.0 mm
07:41 AM 44.8°F7.1°C 43.7°F6.5°C 96% 2.2 mph NE3.5 kmh NE 6.9 mph11.1 kmh 30.05 in1017.6 mb 0.00 in0.0 mm 0.00 in0.0 mm 0.00 in0.0 mm
07:40 AM 44.8°F7.1°C 43.7°F6.5°C 96% 3.8 mph NE6.1 kmh NE 5.4 mph8.7 kmh 30.05 in1017.6 mb 0.00 in0.0 mm 0.00 in0.0 mm 0.00 in0.0 mm
07:39 AM 44.6°F7.0°C 43.5°F6.4°C 96% 3.1 mph NE5.0 kmh NE 6.9 mph11.1 kmh 30.05 in1017.6 mb 0.00 in0.0 mm 0.00 in0.0 mm 0.00 in0.0 mm
07:37 AM 44.6°F7.0°C 43.5°F6.4°C 96% 3.8 mph ENE6.1 kmh ENE 6.9 mph11.1 kmh 30.05 in1017.6 mb 0.00 in0.0 mm 0.00 in0.0 mm 0.00 in0.0 mm
07:36 AM 44.6°F7.0°C 43.5°F6.4°C 96% 2.2 mph NE3.5 kmh NE 5.4 mph8.7 kmh 30.05 in1017.6 mb 0.00 in0.0 mm 0.00 in0.0 mm 0.00 in0.0 mm
07:35 AM 44.6°F7.0°C 43.5°F6.4°C 96% 3.1 mph NE5.0 kmh NE 6.0 mph9.7 kmh 30.05 in1017.6 mb 0.00 in0.0 mm 0.00 in0.0 mm 0.00 in0.0 mm
07:34 AM 44.6°F7.0°C 43.5°F6.4°C 96% 3.8 mph 6.1 kmh 6.0 mph9.7 kmh 30.06 in1017.9 mb 0.00 in0.0 mm 0.00 in0.0 mm 0.00 in0.0 mm
07:33 AM 44.6°F7.0°C 43.5°F6.4°C 96% 1.6 mph NE2.6 kmh NE 4.5 mph7.2 kmh 30.06 in1017.9 mb 0.00 in0.0 mm 0.00 in0.0 mm 0.00 in0.0 mm
07:32 AM 44.6°F7.0°C 43.5°F6.4°C 96% 3.1 mph NE5.0 kmh NE 4.5 mph7.2 kmh 30.05 in1017.6 mb 0.00 in0.0 mm 0.00 in0.0 mm 0.00 in0.0 mm
07:30 AM 44.6°F7.0°C 43.5°F6.4°C 96% 3.1 mph NE5.0 kmh NE 4.5 mph7.2 kmh 30.05 in1017.6 mb 0.00 in0.0 mm 0.00 in0.0 mm 0.00 in0.0 mm
07:29 AM 44.6°F7.0°C 43.5°F6.4°C 96% 3.1 mph NE5.0 kmh NE 4.5 mph7.2 kmh 30.05 in1017.6 mb 0.00 in0.0 mm 0.00 in0.0 mm 0.00 in0.0 mm
07:28 AM 44.6°F7.0°C 43.5°F6.4°C 96% 4.5 mph NE7.2 kmh NE 6.0 mph9.7 kmh 30.05 in1017.6 mb 0.00 in0.0 mm 0.00 in0.0 mm 0.00 in0.0 mm
07:27 AM 44.6°F7.0°C 43.5°F6.4°C 96% 2.2 mph NE3.5 kmh NE 5.4 mph8.7 kmh 30.05 in1017.6 mb 0.00 in0.0 mm 0.00 in0.0 mm 0.00 in0.0 mm
07:26 AM 44.6°F7.0°C 43.5°F6.4°C 96% 1.6 mph NE2.6 kmh NE 3.1 mph5.0 kmh 30.05 in1017.6 mb 0.00 in0.0 mm 0.00 in0.0 mm 0.00 in0.0 mm
07:25 AM 44.6°F7.0°C 43.5°F6.4°C 96% 2.2 mph NE3.5 kmh NE 4.5 mph7.2 kmh 30.06 in1017.9 mb 0.00 in0.0 mm 0.00 in0.0 mm 0.00 in0.0 mm
07:23 AM 44.6°F7.0°C 43.5°F6.4°C 96% 3.1 mph NE5.0 kmh NE 5.4 mph8.7 kmh 30.05 in1017.6 mb 0.00 in0.0 mm 0.00 in0.0 mm 0.00 in0.0 mm
07:22 AM 44.6°F7.0°C 43.5°F6.4°C 96% 3.8 mph NE6.1 kmh NE 5.4 mph8.7 kmh 30.06 in1017.9 mb 0.00 in0.0 mm 0.00 in0.0 mm 0.00 in0.0 mm
07:21 AM 44.6°F7.0°C 43.3°F6.3°C 95% 2.2 mph NE3.5 kmh NE 5.4 mph8.7 kmh 30.05 in1017.6 mb 0.00 in0.0 mm 0.00 in0.0 mm 0.00 in0.0 mm
07:20 AM 44.6°F7.0°C 43.3°F6.3°C 95% 3.8 mph NE6.1 kmh NE 5.4 mph8.7 kmh 30.06 in1017.9 mb 0.00 in0.0 mm 0.00 in0.0 mm 0.00 in0.0 mm
07:19 AM 44.6°F7.0°C 43.3°F6.3°C 95% 2.2 mph NE3.5 kmh NE 6.0 mph9.7 kmh 30.06 in1017.9 mb 0.00 in0.0 mm 0.00 in0.0 mm 0.00 in0.0 mm
07:17 AM 44.6°F7.0°C 43.3°F6.3°C 95% 3.1 mph NE5.0 kmh NE 6.0 mph9.7 kmh 30.06 in1017.9 mb 0.00 in0.0 mm 0.00 in0.0 mm 0.00 in0.0 mm
07:16 AM 44.6°F7.0°C 43.3°F6.3°C 95% 3.1 mph NE5.0 kmh NE 5.4 mph8.7 kmh 30.05 in1017.6 mb 0.00 in0.0 mm 0.00 in0.0 mm 0.00 in0.0 mm
07:15 AM 44.6°F7.0°C 43.3°F6.3°C 95% 2.2 mph NE3.5 kmh NE 3.8 mph6.1 kmh 30.05 in1017.6 mb 0.00 in0.0 mm 0.00 in0.0 mm 0.00 in0.0 mm
07:14 AM 44.6°F7.0°C 43.3°F6.3°C 95% 3.1 mph NE5.0 kmh NE 6.0 mph9.7 kmh 30.06 in1017.9 mb 0.00 in0.0 mm 0.00 in0.0 mm 0.00 in0.0 mm
07:13 AM 44.6°F7.0°C 43.3°F6.3°C 95% 3.1 mph 5.0 kmh 6.0 mph9.7 kmh 30.06 in1017.9 mb 0.00 in0.0 mm 0.00 in0.0 mm 0.00 in0.0 mm
07:12 AM 44.6°F7.0°C 43.3°F6.3°C 95% 4.5 mph NE7.2 kmh NE 6.0 mph9.7 kmh 30.06 in1017.9 mb 0.00 in0.0 mm 0.00 in0.0 mm 0.00 in0.0 mm
07:10 AM 44.6°F7.0°C 43.3°F6.3°C 95% 3.1 mph E5.0 kmh E 4.5 mph7.2 kmh 30.06 in1017.9 mb 0.00 in0.0 mm 0.00 in0.0 mm 0.00 in0.0 mm
07:09 AM 44.6°F7.0°C 43.3°F6.3°C 95% 2.2 mph NE3.5 kmh NE 4.5 mph7.2 kmh 30.05 in1017.6 mb 0.00 in0.0 mm 0.00 in0.0 mm 0.00 in0.0 mm
07:08 AM 44.6°F7.0°C 43.3°F6.3°C 95% 2.2 mph NE3.5 kmh NE 4.5 mph7.2 kmh 30.05 in1017.6 mb 0.00 in0.0 mm 0.00 in0.0 mm 0.00 in0.0 mm
07:07 AM 44.6°F7.0°C 43.3°F6.3°C 95% 3.1 mph NE5.0 kmh NE 4.5 mph7.2 kmh 30.05 in1017.6 mb 0.00 in0.0 mm 0.00 in0.0 mm 0.00 in0.0 mm
07:06 AM 44.6°F7.0°C 43.3°F6.3°C 95% 3.1 mph NE5.0 kmh NE 5.4 mph8.7 kmh 30.05 in1017.6 mb 0.00 in0.0 mm 0.00 in0.0 mm 0.00 in0.0 mm
07:05 AM 44.6°F7.0°C 43.3°F6.3°C 95% 2.2 mph NE3.5 kmh NE 4.5 mph7.2 kmh 30.05 in1017.6 mb 0.00 in0.0 mm 0.00 in0.0 mm 0.00 in0.0 mm
07:03 AM 44.6°F7.0°C 43.3°F6.3°C 95% 3.1 mph NE5.0 kmh NE 4.5 mph7.2 kmh 30.05 in1017.6 mb 0.00 in0.0 mm 0.00 in0.0 mm 0.00 in0.0 mm
07:02 AM 44.6°F7.0°C 43.0°F6.1°C 94% 2.2 mph NE3.5 kmh NE 3.1 mph5.0 kmh 30.06 in1017.9 mb 0.00 in0.0 mm 0.00 in0.0 mm 0.00 in0.0 mm
07:01 AM 44.6°F7.0°C 43.0°F6.1°C 94% 1.6 mph NE2.6 kmh NE 4.5 mph7.2 kmh 30.05 in1017.6 mb 0.00 in0.0 mm 0.00 in0.0 mm 0.00 in0.0 mm
07:00 AM 44.6°F7.0°C 43.0°F6.1°C 94% 1.6 mph NE2.6 kmh NE 5.4 mph8.7 kmh 30.05 in1017.6 mb 0.00 in0.0 mm 0.00 in0.0 mm 0.00 in0.0 mm
06:59 AM 44.6°F7.0°C 43.0°F6.1°C 94% 2.2 mph NE3.5 kmh NE 5.4 mph8.7 kmh 30.06 in1017.9 mb 0.00 in0.0 mm 0.00 in0.0 mm 0.00 in0.0 mm
06:57 AM 44.6°F7.0°C 43.0°F6.1°C 94% 2.2 mph NE3.5 kmh NE 3.8 mph6.1 kmh 30.06 in1017.9 mb 0.00 in0.0 mm 0.00 in0.0 mm 0.00 in0.0 mm
06:56 AM 44.6°F7.0°C 43.0°F6.1°C 94% 2.2 mph NE3.5 kmh NE 3.8 mph6.1 kmh 30.05 in1017.6 mb 0.00 in0.0 mm 0.00 in0.0 mm 0.00 in0.0 mm
06:55 AM 44.6°F7.0°C 43.0°F6.1°C 94% 3.1 mph NE5.0 kmh NE 5.4 mph8.7 kmh 30.05 in1017.6 mb 0.00 in0.0 mm 0.00 in0.0 mm 0.00 in0.0 mm
06:54 AM 44.6°F7.0°C 43.0°F6.1°C 94% 3.1 mph NE5.0 kmh NE 5.4 mph8.7 kmh 30.05 in1017.6 mb 0.00 in0.0 mm 0.00 in0.0 mm 0.00 in0.0 mm
06:53 AM 44.6°F7.0°C 43.0°F6.1°C 94% 3.1 mph NE5.0 kmh NE 5.4 mph8.7 kmh 30.05 in1017.6 mb 0.00 in0.0 mm 0.00 in0.0 mm 0.00 in0.0 mm
06:52 AM 44.6°F7.0°C 43.0°F6.1°C 94% 3.1 mph NE5.0 kmh NE 6.0 mph9.7 kmh 30.05 in1017.6 mb 0.00 in0.0 mm 0.00 in0.0 mm 0.00 in0.0 mm
06:50 AM 44.6°F7.0°C 43.0°F6.1°C 94% 2.2 mph NE3.5 kmh NE 3.8 mph6.1 kmh 30.06 in1017.9 mb 0.00 in0.0 mm 0.00 in0.0 mm 0.00 in0.0 mm
06:49 AM 44.6°F7.0°C 43.0°F6.1°C 94% 2.2 mph NE3.5 kmh NE 4.5 mph7.2 kmh 30.05 in1017.6 mb 0.00 in0.0 mm 0.00 in0.0 mm 0.00 in0.0 mm
06:48 AM 44.6°F7.0°C 43.0°F6.1°C 94% 3.1 mph NE5.0 kmh NE 3.8 mph6.1 kmh 30.06 in1017.9 mb 0.00 in0.0 mm 0.00 in0.0 mm 0.00 in0.0 mm
06:47 AM 44.6°F7.0°C 43.0°F6.1°C 94% 2.2 mph NE3.5 kmh NE 3.8 mph6.1 kmh 30.05 in1017.6 mb 0.00 in0.0 mm 0.00 in0.0 mm 0.00 in0.0 mm
06:46 AM 44.6°F7.0°C 43.0°F6.1°C 94% 2.2 mph NE3.5 kmh NE 3.8 mph6.1 kmh 30.06 in1017.9 mb 0.00 in0.0 mm 0.00 in0.0 mm 0.00 in0.0 mm
06:45 AM 44.6°F7.0°C 43.0°F6.1°C 94% 3.1 mph NE5.0 kmh NE 3.8 mph6.1 kmh 30.05 in1017.6 mb 0.00 in0.0 mm 0.00 in0.0 mm 0.00 in0.0 mm
06:43 AM 44.6°F7.0°C 43.0°F6.1°C 94% 2.2 mph NE3.5 kmh NE 3.8 mph6.1 kmh 30.05 in1017.6 mb 0.00 in0.0 mm 0.00 in0.0 mm 0.00 in0.0 mm
06:42 AM 44.6°F7.0°C 43.0°F6.1°C 94% 3.1 mph NE5.0 kmh NE 3.8 mph6.1 kmh 30.05 in1017.6 mb 0.00 in0.0 mm 0.00 in0.0 mm 0.00 in0.0 mm
06:41 AM 44.6°F7.0°C 43.0°F6.1°C 94% 2.2 mph NE3.5 kmh NE 3.8 mph6.1 kmh 30.05 in1017.6 mb 0.00 in0.0 mm 0.00 in0.0 mm 0.00 in0.0 mm
06:40 AM 44.6°F7.0°C 42.6°F5.9°C 93% 3.1 mph NE5.0 kmh NE 4.5 mph7.2 kmh 30.06 in1017.9 mb 0.00 in0.0 mm 0.00 in0.0 mm 0.00 in0.0 mm
06:39 AM 44.8°F7.1°C 42.8°F6.0°C 93% 3.1 mph NE5.0 kmh NE 4.5 mph7.2 kmh 30.05 in1017.6 mb 0.00 in0.0 mm 0.00 in0.0 mm 0.00 in0.0 mm
06:38 AM 44.8°F7.1°C 42.8°F6.0°C 93% 2.2 mph NE3.5 kmh NE 4.5 mph7.2 kmh 30.06 in1017.9 mb 0.00 in0.0 mm 0.00 in0.0 mm 0.00 in0.0 mm
06:36 AM 44.8°F7.1°C 42.8°F6.0°C 93% 1.6 mph NE2.6 kmh NE 3.1 mph5.0 kmh 30.06 in1017.9 mb 0.00 in0.0 mm 0.00 in0.0 mm 0.00 in0.0 mm
06:35 AM 44.8°F7.1°C 42.8°F6.0°C 93% 3.1 mph NE5.0 kmh NE 3.8 mph6.1 kmh 30.06 in1017.9 mb 0.00 in0.0 mm 0.00 in0.0 mm 0.00 in0.0 mm
06:34 AM 44.8°F7.1°C 42.8°F6.0°C 93% 2.2 mph NE3.5 kmh NE 3.1 mph5.0 kmh 30.06 in1017.9 mb 0.00 in0.0 mm 0.00 in0.0 mm 0.00 in0.0 mm
06:33 AM 44.8°F7.1°C 42.8°F6.0°C 93% 2.2 mph NE3.5 kmh NE 3.8 mph6.1 kmh 30.06 in1017.9 mb 0.00 in0.0 mm 0.00 in0.0 mm 0.00 in0.0 mm
06:32 AM 44.8°F7.1°C 42.8°F6.0°C 93% 2.2 mph NE3.5 kmh NE 3.1 mph5.0 kmh 30.05 in1017.6 mb 0.00 in0.0 mm 0.00 in0.0 mm 0.00 in0.0 mm
06:30 AM 44.8°F7.1°C 42.8°F6.0°C 93% 2.2 mph NE3.5 kmh NE 3.8 mph6.1 kmh 30.05 in1017.6 mb 0.00 in0.0 mm 0.00 in0.0 mm 0.00 in0.0 mm
06:29 AM 44.8°F7.1°C 42.8°F6.0°C 93% 2.2 mph NE3.5 kmh NE 3.8 mph6.1 kmh 30.05 in1017.6 mb 0.00 in0.0 mm 0.00 in0.0 mm 0.00 in0.0 mm
06:28 AM 44.8°F7.1°C 42.8°F6.0°C 93% 3.1 mph NE5.0 kmh NE 4.5 mph7.2 kmh 30.05 in1017.6 mb 0.00 in0.0 mm 0.00 in0.0 mm 0.00 in0.0 mm
06:27 AM 44.8°F7.1°C 42.8°F6.0°C 93% 2.2 mph NE3.5 kmh NE 3.8 mph6.1 kmh 30.05 in1017.6 mb 0.00 in0.0 mm 0.00 in0.0 mm 0.00 in0.0 mm
06:26 AM 44.8°F7.1°C 42.8°F6.0°C 93% 2.2 mph NE3.5 kmh NE 4.5 mph7.2 kmh 30.05 in1017.6 mb 0.00 in0.0 mm 0.00 in0.0 mm 0.00 in0.0 mm
06:25 AM 44.8°F7.1°C 42.8°F6.0°C 93% 3.1 mph NE5.0 kmh NE 4.5 mph7.2 kmh 30.05 in1017.6 mb 0.00 in0.0 mm 0.00 in0.0 mm 0.00 in0.0 mm
06:23 AM 44.8°F7.1°C 42.8°F6.0°C 93% 3.1 mph NE5.0 kmh NE 4.5 mph7.2 kmh 30.05 in1017.6 mb 0.00 in0.0 mm 0.00 in0.0 mm 0.00 in0.0 mm
06:22 AM 45.0°F7.2°C 43.0°F6.1°C 93% 2.2 mph NE3.5 kmh NE 4.5 mph7.2 kmh 30.05 in1017.6 mb 0.00 in0.0 mm 0.00 in0.0 mm 0.00 in0.0 mm
06:21 AM 45.0°F7.2°C 43.0°F6.1°C 93% 3.1 mph NE5.0 kmh NE 4.5 mph7.2 kmh 30.05 in1017.6 mb 0.00 in0.0 mm 0.00 in0.0 mm 0.00 in0.0 mm
06:20 AM 45.0°F7.2°C 43.0°F6.1°C 93% 2.2 mph NE3.5 kmh NE 3.8 mph6.1 kmh 30.05 in1017.6 mb 0.00 in0.0 mm 0.00 in0.0 mm 0.00 in0.0 mm
06:19 AM 45.0°F7.2°C 43.0°F6.1°C 93% 2.2 mph NE3.5 kmh NE 5.4 mph8.7 kmh 30.06 in1017.9 mb 0.00 in0.0 mm 0.00 in0.0 mm 0.00 in0.0 mm
06:18 AM 45.0°F7.2°C 43.0°F6.1°C 93% 3.8 mph NE6.1 kmh NE 4.5 mph7.2 kmh 30.05 in1017.6 mb 0.00 in0.0 mm 0.00 in0.0 mm 0.00 in0.0 mm
06:16 AM 45.0°F7.2°C 42.8°F6.0°C 92% 3.1 mph NE5.0 kmh NE 4.5 mph7.2 kmh 30.05 in1017.6 mb 0.00 in0.0 mm 0.00 in0.0 mm 0.00 in0.0 mm
06:15 AM 45.0°F7.2°C 42.8°F6.0°C 92% 2.2 mph NE3.5 kmh NE 3.8 mph6.1 kmh 30.05 in1017.6 mb 0.00 in0.0 mm 0.00 in0.0 mm 0.00 in0.0 mm
06:14 AM 45.0°F7.2°C 42.8°F6.0°C 92% 2.2 mph NE3.5 kmh NE 4.5 mph7.2 kmh 30.06 in1017.9 mb 0.00 in0.0 mm 0.00 in0.0 mm 0.00 in0.0 mm
06:13 AM 45.0°F7.2°C 42.8°F6.0°C 92% 3.1 mph NE5.0 kmh NE 6.0 mph9.7 kmh 30.05 in1017.6 mb 0.00 in0.0 mm 0.00 in0.0 mm 0.00 in0.0 mm
06:12 AM 45.0°F7.2°C 42.8°F6.0°C 92% 3.1 mph NE5.0 kmh NE 3.8 mph6.1 kmh 30.05 in1017.6 mb 0.00 in0.0 mm 0.00 in0.0 mm 0.00 in0.0 mm
06:10 AM 45.0°F7.2°C 42.8°F6.0°C 92% 2.2 mph E3.5 kmh E 4.5 mph7.2 kmh 30.06 in1017.9 mb 0.00 in0.0 mm 0.00 in0.0 mm 0.00 in0.0 mm
06:09 AM 45.0°F7.2°C 42.8°F6.0°C 92% 3.1 mph NE5.0 kmh NE 4.5 mph7.2 kmh 30.05 in1017.6 mb 0.00 in0.0 mm 0.00 in0.0 mm 0.00 in0.0 mm
06:08 AM 45.0°F7.2°C 42.8°F6.0°C 92% 3.1 mph NE5.0 kmh NE 4.5 mph7.2 kmh 30.05 in1017.6 mb 0.00 in0.0 mm 0.00 in0.0 mm 0.00 in0.0 mm
06:07 AM 45.0°F7.2°C 42.8°F6.0°C 92% 3.1 mph NE5.0 kmh NE 4.5 mph7.2 kmh 30.05 in1017.6 mb 0.00 in0.0 mm 0.00 in0.0 mm 0.00 in0.0 mm
06:06 AM 45.0°F7.2°C 42.8°F6.0°C 92% 2.2 mph NE3.5 kmh NE 6.0 mph9.7 kmh 30.05 in1017.6 mb 0.00 in0.0 mm 0.00 in0.0 mm 0.00 in0.0 mm
06:05 AM 45.0°F7.2°C 42.8°F6.0°C 92% 3.1 mph NE5.0 kmh NE 4.5 mph7.2 kmh 30.06 in1017.9 mb 0.00 in0.0 mm 0.00 in0.0 mm 0.00 in0.0 mm
06:03 AM 45.0°F7.2°C 42.8°F6.0°C 92% 3.1 mph NE5.0 kmh NE 4.5 mph7.2 kmh 30.06 in1017.9 mb 0.00 in0.0 mm 0.00 in0.0 mm 0.00 in0.0 mm
06:02 AM 45.0°F7.2°C 42.8°F6.0°C 92% 3.1 mph NE5.0 kmh NE 4.5 mph7.2 kmh 30.06 in1017.9 mb 0.00 in0.0 mm 0.00 in0.0 mm 0.00 in0.0 mm
06:01 AM 45.0°F7.2°C 42.8°F6.0°C 92% 2.2 mph NE3.5 kmh NE 5.4 mph8.7 kmh 30.06 in1017.9 mb 0.00 in0.0 mm 0.00 in0.0 mm 0.00 in0.0 mm
06:00 AM 45.0°F7.2°C 42.8°F6.0°C 92% 3.1 mph NE5.0 kmh NE 4.5 mph7.2 kmh 30.06 in1017.9 mb 0.00 in0.0 mm 0.00 in0.0 mm 0.00 in0.0 mm
05:59 AM 45.1°F7.3°C 43.0°F6.1°C 92% 1.6 mph NE2.6 kmh NE 3.8 mph6.1 kmh 30.05 in1017.6 mb 0.00 in0.0 mm 0.00 in0.0 mm 0.00 in0.0 mm
05:58 AM 45.1°F7.3°C 43.0°F6.1°C 92% 1.6 mph NE2.6 kmh NE 3.8 mph6.1 kmh 30.06 in1017.9 mb 0.00 in0.0 mm 0.00 in0.0 mm 0.00 in0.0 mm
05:56 AM 45.1°F7.3°C 43.0°F6.1°C 92% 1.6 mph NE2.6 kmh NE 3.1 mph5.0 kmh 30.06 in1017.9 mb 0.00 in0.0 mm 0.00 in0.0 mm 0.00 in0.0 mm
05:55 AM 45.1°F7.3°C 43.0°F6.1°C 92% 2.2 mph NE3.5 kmh NE 5.4 mph8.7 kmh 30.06 in1017.9 mb 0.00 in0.0 mm 0.00 in0.0 mm 0.00 in0.0 mm
05:54 AM 45.1°F7.3°C 42.6°F5.9°C 91% 3.1 mph NE5.0 kmh NE 5.4 mph8.7 kmh 30.06 in1017.9 mb 0.00 in0.0 mm 0.00 in0.0 mm 0.00 in0.0 mm
05:53 AM 45.1°F7.3°C 42.6°F5.9°C 91% 1.6 mph NE2.6 kmh NE 3.1 mph5.0 kmh 30.06 in1017.9 mb 0.00 in0.0 mm 0.00 in0.0 mm 0.00 in0.0 mm
05:52 AM 45.1°F7.3°C 42.6°F5.9°C 91% 2.2 mph NE3.5 kmh NE 3.8 mph6.1 kmh 30.06 in1017.9 mb 0.00 in0.0 mm 0.00 in0.0 mm 0.00 in0.0 mm
05:51 AM 45.1°F7.3°C 42.6°F5.9°C 91% 2.2 mph NE3.5 kmh NE 3.8 mph6.1 kmh 30.06 in1017.9 mb 0.00 in0.0 mm 0.00 in0.0 mm 0.00 in0.0 mm
05:49 AM 45.1°F7.3°C 42.6°F5.9°C 91% 1.6 mph NE2.6 kmh NE 3.8 mph6.1 kmh 30.06 in1017.9 mb 0.00 in0.0 mm 0.00 in0.0 mm 0.00 in0.0 mm
05:48 AM 45.1°F7.3°C 42.6°F5.9°C 91% 2.2 mph NE3.5 kmh NE 3.8 mph6.1 kmh 30.06 in1017.9 mb 0.00 in0.0 mm 0.00 in0.0 mm 0.00 in0.0 mm
05:47 AM 45.1°F7.3°C 42.6°F5.9°C 91% 1.6 mph E2.6 kmh E 3.8 mph6.1 kmh 30.06 in1017.9 mb 0.00 in0.0 mm 0.00 in0.0 mm 0.00 in0.0 mm
05:46 AM 45.1°F7.3°C 42.6°F5.9°C 91% 2.2 mph NE3.5 kmh NE 3.8 mph6.1 kmh 30.06 in1017.9 mb 0.00 in0.0 mm 0.00 in0.0 mm 0.00 in0.0 mm
05:45 AM 45.1°F7.3°C 42.6°F5.9°C 91% 2.2 mph NE3.5 kmh NE 3.8 mph6.1 kmh 30.06 in1017.9 mb 0.00 in0.0 mm 0.00 in0.0 mm 0.00 in0.0 mm
05:43 AM 45.1°F7.3°C 42.6°F5.9°C 91% 2.2 mph NE3.5 kmh NE 5.4 mph8.7 kmh 30.06 in1017.9 mb 0.00 in0.0 mm 0.00 in0.0 mm 0.00 in0.0 mm
05:42 AM 45.1°F7.3°C 42.6°F5.9°C 91% 3.1 mph ENE5.0 kmh ENE 5.4 mph8.7 kmh 30.06 in1017.9 mb 0.00 in0.0 mm 0.00 in0.0 mm 0.00 in0.0 mm
05:41 AM 45.1°F7.3°C 42.6°F5.9°C 91% 3.1 mph E5.0 kmh E 5.4 mph8.7 kmh 30.06 in1017.9 mb 0.00 in0.0 mm 0.00 in0.0 mm 0.00 in0.0 mm
05:40 AM 45.1°F7.3°C 42.6°F5.9°C 91% 2.2 mph ENE3.5 kmh ENE 3.8 mph6.1 kmh 30.06 in1017.9 mb 0.00 in0.0 mm 0.00 in0.0 mm 0.00 in0.0 mm
05:39 AM 45.1°F7.3°C 42.6°F5.9°C 91% 1.6 mph ENE2.6 kmh ENE 3.1 mph5.0 kmh 30.06 in1017.9 mb 0.00 in0.0 mm 0.00 in0.0 mm 0.00 in0.0 mm
05:38 AM 45.1°F7.3°C 42.6°F5.9°C 91% 3.8 mph ENE6.1 kmh ENE 5.4 mph8.7 kmh 30.06 in1017.9 mb 0.00 in0.0 mm 0.00 in0.0 mm 0.00 in0.0 mm
05:36 AM 45.1°F7.3°C 42.4°F5.8°C 90% 3.1 mph ENE5.0 kmh ENE 5.4 mph8.7 kmh 30.06 in1017.9 mb 0.00 in0.0 mm 0.00 in0.0 mm 0.00 in0.0 mm
05:35 AM 45.1°F7.3°C 42.4°F5.8°C 90% 3.1 mph E5.0 kmh E 4.5 mph7.2 kmh 30.06 in1017.9 mb 0.00 in0.0 mm 0.00 in0.0 mm 0.00 in0.0 mm
05:34 AM 45.1°F7.3°C 42.4°F5.8°C 90% 2.2 mph E3.5 kmh E 5.4 mph8.7 kmh 30.06 in1017.9 mb 0.00 in0.0 mm 0.00 in0.0 mm 0.00 in0.0 mm
05:33 AM 45.1°F7.3°C 42.4°F5.8°C 90% 2.2 mph NE3.5 kmh NE 4.5 mph7.2 kmh 30.06 in1017.9 mb 0.00 in0.0 mm 0.00 in0.0 mm 0.00 in0.0 mm
05:32 AM 45.3°F7.4°C 42.6°F5.9°C 90% 3.1 mph NE5.0 kmh NE 4.5 mph7.2 kmh 30.06 in1017.9 mb 0.00 in0.0 mm 0.00 in0.0 mm 0.00 in0.0 mm
05:31 AM 45.3°F7.4°C 42.6°F5.9°C 90% 3.1 mph NE5.0 kmh NE 4.5 mph7.2 kmh 30.06 in1017.9 mb 0.00 in0.0 mm 0.00 in0.0 mm 0.00 in0.0 mm
05:29 AM 45.3°F7.4°C 42.6°F5.9°C 90% 3.1 mph NE5.0 kmh NE 3.8 mph6.1 kmh 30.06 in1017.9 mb 0.00 in0.0 mm 0.00 in0.0 mm 0.00 in0.0 mm
05:28 AM 45.3°F7.4°C 42.6°F5.9°C 90% 2.2 mph NE3.5 kmh NE 4.5 mph7.2 kmh 30.06 in1017.9 mb 0.00 in0.0 mm 0.00 in0.0 mm 0.00 in0.0 mm
05:27 AM 45.3°F7.4°C 42.6°F5.9°C 90% 3.1 mph NE5.0 kmh NE 4.5 mph7.2 kmh 30.06 in1017.9 mb 0.00 in0.0 mm 0.00 in0.0 mm 0.00 in0.0 mm
05:26 AM 45.3°F7.4°C 42.6°F5.9°C 90% 3.1 mph NE5.0 kmh NE 4.5 mph7.2 kmh 30.06 in1017.9 mb 0.00 in0.0 mm 0.00 in0.0 mm 0.00 in0.0 mm
05:25 AM 45.5°F7.5°C 42.8°F6.0°C 90% 3.8 mph NE6.1 kmh NE 4.5 mph7.2 kmh 30.06 in1017.9 mb 0.00 in0.0 mm 0.00 in0.0 mm 0.00 in0.0 mm
05:23 AM 45.5°F7.5°C 42.8°F6.0°C 90% 2.2 mph NE3.5 kmh NE 3.1 mph5.0 kmh 30.06 in1017.9 mb 0.00 in0.0 mm 0.00 in0.0 mm 0.00 in0.0 mm
05:22 AM 45.5°F7.5°C 42.8°F6.0°C 90% 1.6 mph NE2.6 kmh NE 3.8 mph6.1 kmh 30.06 in1017.9 mb 0.00 in0.0 mm 0.00 in0.0 mm 0.00 in0.0 mm
05:21 AM 45.5°F7.5°C 42.8°F6.0°C 90% 3.1 mph NE5.0 kmh NE 3.8 mph6.1 kmh 30.06 in1017.9 mb 0.00 in0.0 mm 0.00 in0.0 mm 0.00 in0.0 mm
05:20 AM 45.5°F7.5°C 42.8°F6.0°C 90% 1.6 mph NE2.6 kmh NE 3.1 mph5.0 kmh 30.06 in1017.9 mb 0.00 in0.0 mm 0.00 in0.0 mm 0.00 in0.0 mm
05:19 AM 45.5°F7.5°C 42.8°F6.0°C 90% 0.7 mph NE1.1 kmh NE 3.1 mph5.0 kmh 30.06 in1017.9 mb 0.00 in0.0 mm 0.00 in0.0 mm 0.00 in0.0 mm
05:18 AM 45.7°F7.6°C 43.0°F6.1°C 90% 2.2 mph NE3.5 kmh NE 4.5 mph7.2 kmh 30.06 in1017.9 mb 0.00 in0.0 mm 0.00 in0.0 mm 0.00 in0.0 mm
05:16 AM 45.7°F7.6°C 43.0°F6.1°C 90% 3.1 mph NE5.0 kmh NE 4.5 mph7.2 kmh 30.07 in1018.3 mb 0.00 in0.0 mm 0.00 in0.0 mm 0.00 in0.0 mm
05:15 AM 45.7°F7.6°C 43.0°F6.1°C 90% 3.1 mph NE5.0 kmh NE 4.5 mph7.2 kmh 30.06 in1017.9 mb 0.00 in0.0 mm 0.00 in0.0 mm 0.00 in0.0 mm
05:14 AM 45.7°F7.6°C 43.0°F6.1°C 90% 3.1 mph NE5.0 kmh NE 4.5 mph7.2 kmh 30.06 in1017.9 mb 0.00 in0.0 mm 0.00 in0.0 mm 0.00 in0.0 mm
05:13 AM 45.7°F7.6°C 42.6°F5.9°C 89% 3.1 mph NE5.0 kmh NE 4.5 mph7.2 kmh 30.06 in1017.9 mb 0.00 in0.0 mm 0.00 in0.0 mm 0.00 in0.0 mm
05:12 AM 45.9°F7.7°C 42.8°F6.0°C 89% 2.2 mph NE3.5 kmh NE 5.4 mph8.7 kmh 30.06 in1017.9 mb 0.00 in0.0 mm 0.00 in0.0 mm 0.00 in0.0 mm
05:11 AM 45.9°F7.7°C 42.8°F6.0°C 89% 2.2 mph NE3.5 kmh NE 5.4 mph8.7 kmh 30.06 in1017.9 mb 0.00 in0.0 mm 0.00 in0.0 mm 0.00 in0.0 mm
05:09 AM 45.9°F7.7°C 42.8°F6.0°C 89% 3.1 mph NE5.0 kmh NE 4.5 mph7.2 kmh 30.06 in1017.9 mb 0.00 in0.0 mm 0.00 in0.0 mm 0.00 in0.0 mm
05:08 AM 45.9°F7.7°C 42.8°F6.0°C 89% 3.1 mph E5.0 kmh E 6.9 mph11.1 kmh 30.05 in1017.6 mb 0.00 in0.0 mm 0.00 in0.0 mm 0.00 in0.0 mm
05:07 AM 45.9°F7.7°C 42.8°F6.0°C 89% 3.1 mph NE5.0 kmh NE 7.6 mph12.2 kmh 30.06 in1017.9 mb 0.00 in0.0 mm 0.00 in0.0 mm 0.00 in0.0 mm
05:06 AM 45.9°F7.7°C 42.8°F6.0°C 89% 5.4 mph NE8.7 kmh NE 7.6 mph12.2 kmh 30.06 in1017.9 mb 0.00 in0.0 mm 0.00 in0.0 mm 0.00 in0.0 mm
05:05 AM 45.9°F7.7°C 42.8°F6.0°C 89% 3.8 mph NE6.1 kmh NE 6.0 mph9.7 kmh 30.06 in1017.9 mb 0.00 in0.0 mm 0.00 in0.0 mm 0.00 in0.0 mm
05:04 AM 45.9°F7.7°C 42.8°F6.0°C 89% 3.8 mph NE6.1 kmh NE 6.0 mph9.7 kmh 30.06 in1017.9 mb 0.00 in0.0 mm 0.00 in0.0 mm 0.00 in0.0 mm
05:02 AM 45.9°F7.7°C 42.8°F6.0°C 89% 3.1 mph NE5.0 kmh NE 4.5 mph7.2 kmh 30.06 in1017.9 mb 0.00 in0.0 mm 0.00 in0.0 mm 0.00 in0.0 mm
05:01 AM 45.9°F7.7°C 42.8°F6.0°C 89% 3.1 mph NE5.0 kmh NE 5.4 mph8.7 kmh 30.06 in1017.9 mb 0.00 in0.0 mm 0.00 in0.0 mm 0.00 in0.0 mm
05:00 AM 45.9°F7.7°C 42.8°F6.0°C 89% 4.5 mph NE7.2 kmh NE 5.4 mph8.7 kmh 30.06 in1017.9 mb 0.00 in0.0 mm 0.00 in0.0 mm 0.00 in0.0 mm
04:59 AM 45.9°F7.7°C 42.8°F6.0°C 89% 2.2 mph NE3.5 kmh NE 3.8 mph6.1 kmh 30.06 in1017.9 mb 0.00 in0.0 mm 0.00 in0.0 mm 0.00 in0.0 mm
04:58 AM 45.9°F7.7°C 42.8°F6.0°C 89% 1.6 mph NE2.6 kmh NE 3.8 mph6.1 kmh 30.06 in1017.9 mb 0.00 in0.0 mm 0.00 in0.0 mm 0.00 in0.0 mm
04:56 AM 46.0°F7.8°C 43.0°F6.1°C 89% 2.2 mph NE3.5 kmh NE 4.5 mph7.2 kmh 30.06 in1017.9 mb 0.00 in0.0 mm 0.00 in0.0 mm 0.00 in0.0 mm
04:55 AM 46.0°F7.8°C 43.0°F6.1°C 89% 3.8 mph NE6.1 kmh NE 6.0 mph9.7 kmh 30.06 in1017.9 mb 0.00 in0.0 mm 0.00 in0.0 mm 0.00 in0.0 mm
04:54 AM 46.0°F7.8°C 43.0°F6.1°C 89% 4.5 mph NE7.2 kmh NE 6.0 mph9.7 kmh 30.07 in1018.3 mb 0.00 in0.0 mm 0.00 in0.0 mm 0.00 in0.0 mm
04:53 AM 46.0°F7.8°C 43.0°F6.1°C 89% 3.1 mph NE5.0 kmh NE 5.4 mph8.7 kmh 30.07 in1018.3 mb 0.00 in0.0 mm 0.00 in0.0 mm 0.00 in0.0 mm
04:52 AM 45.9°F7.7°C 42.8°F6.0°C 89% 3.1 mph NE5.0 kmh NE 5.4 mph8.7 kmh 30.07 in1018.3 mb 0.00 in0.0 mm 0.00 in0.0 mm 0.00 in0.0 mm
04:51 AM 45.9°F7.7°C 42.8°F6.0°C 89% 3.8 mph E6.1 kmh E 5.4 mph8.7 kmh 30.06 in1017.9 mb 0.00 in0.0 mm 0.00 in0.0 mm 0.00 in0.0 mm
04:49 AM 45.9°F7.7°C 42.8°F6.0°C 89% 2.2 mph NE3.5 kmh NE 4.5 mph7.2 kmh 30.07 in1018.3 mb 0.00 in0.0 mm 0.00 in0.0 mm 0.00 in0.0 mm
04:48 AM 45.9°F7.7°C 42.4°F5.8°C 88% 3.1 mph NE5.0 kmh NE 4.5 mph7.2 kmh 30.07 in1018.3 mb 0.00 in0.0 mm 0.00 in0.0 mm 0.00 in0.0 mm
04:47 AM 46.0°F7.8°C 42.6°F5.9°C 88% 2.2 mph NE3.5 kmh NE 3.8 mph6.1 kmh 30.06 in1017.9 mb 0.00 in0.0 mm 0.00 in0.0 mm 0.00 in0.0 mm
04:46 AM 46.0°F7.8°C 42.6°F5.9°C 88% 2.2 mph NE3.5 kmh NE 3.8 mph6.1 kmh 30.07 in1018.3 mb 0.00 in0.0 mm 0.00 in0.0 mm 0.00 in0.0 mm
04:45 AM 46.0°F7.8°C 42.6°F5.9°C 88% 3.1 mph NE5.0 kmh NE 6.0 mph9.7 kmh 30.07 in1018.3 mb 0.00 in0.0 mm 0.00 in0.0 mm 0.00 in0.0 mm
04:44 AM 46.0°F7.8°C 42.6°F5.9°C 88% 3.1 mph NE5.0 kmh NE 6.0 mph9.7 kmh 30.07 in1018.3 mb 0.00 in0.0 mm 0.00 in0.0 mm 0.00 in0.0 mm
04:42 AM 46.0°F7.8°C 42.6°F5.9°C 88% 3.1 mph E5.0 kmh E 4.5 mph7.2 kmh 30.07 in1018.3 mb 0.00 in0.0 mm 0.00 in0.0 mm 0.00 in0.0 mm
04:41 AM 46.0°F7.8°C 42.6°F5.9°C 88% 3.8 mph NE6.1 kmh NE 4.5 mph7.2 kmh 30.07 in1018.3 mb 0.00 in0.0 mm 0.00 in0.0 mm 0.00 in0.0 mm
04:40 AM 46.0°F7.8°C 42.6°F5.9°C 88% 1.6 mph NE2.6 kmh NE 3.8 mph6.1 kmh 30.07 in1018.3 mb 0.00 in0.0 mm 0.00 in0.0 mm 0.00 in0.0 mm
04:39 AM 46.0°F7.8°C 42.6°F5.9°C 88% 3.1 mph NE5.0 kmh NE 4.5 mph7.2 kmh 30.07 in1018.3 mb 0.00 in0.0 mm 0.00 in0.0 mm 0.00 in0.0 mm
04:38 AM 46.0°F7.8°C 42.6°F5.9°C 88% 2.2 mph E3.5 kmh E 4.5 mph7.2 kmh 30.08 in1018.6 mb 0.00 in0.0 mm 0.00 in0.0 mm 0.00 in0.0 mm
04:36 AM 46.0°F7.8°C 42.6°F5.9°C 88% 2.2 mph E3.5 kmh E 3.8 mph6.1 kmh 30.08 in1018.6 mb 0.00 in0.0 mm 0.00 in0.0 mm 0.00 in0.0 mm
04:35 AM 46.0°F7.8°C 42.6°F5.9°C 88% 3.1 mph E5.0 kmh E 3.8 mph6.1 kmh 30.07 in1018.3 mb 0.00 in0.0 mm 0.00 in0.0 mm 0.00 in0.0 mm
04:34 AM 46.0°F7.8°C 42.6°F5.9°C 88% 2.2 mph NE3.5 kmh NE 5.4 mph8.7 kmh 30.07 in1018.3 mb 0.00 in0.0 mm 0.00 in0.0 mm 0.00 in0.0 mm
04:33 AM 46.0°F7.8°C 42.6°F5.9°C 88% 3.8 mph NE6.1 kmh NE 5.4 mph8.7 kmh 30.07 in1018.3 mb 0.00 in0.0 mm 0.00 in0.0 mm 0.00 in0.0 mm
04:32 AM 46.0°F7.8°C 42.6°F5.9°C 88% 3.1 mph NE5.0 kmh NE 4.5 mph7.2 kmh 30.08 in1018.6 mb 0.00 in0.0 mm 0.00 in0.0 mm 0.00 in0.0 mm
04:31 AM 46.0°F7.8°C 42.6°F5.9°C 88% 2.2 mph NE3.5 kmh NE 4.5 mph7.2 kmh 30.07 in1018.3 mb 0.00 in0.0 mm 0.00 in0.0 mm 0.00 in0.0 mm
04:29 AM 46.0°F7.8°C 42.6°F5.9°C 88% 3.1 mph NE5.0 kmh NE 5.4 mph8.7 kmh 30.08 in1018.6 mb 0.00 in0.0 mm 0.00 in0.0 mm 0.00 in0.0 mm
04:28 AM 46.0°F7.8°C 42.6°F5.9°C 88% 3.8 mph NE6.1 kmh NE 5.4 mph8.7 kmh 30.07 in1018.3 mb 0.00 in0.0 mm 0.00 in0.0 mm 0.00 in0.0 mm
04:27 AM 46.0°F7.8°C 42.6°F5.9°C 88% 3.1 mph NE5.0 kmh NE 4.5 mph7.2 kmh 30.07 in1018.3 mb 0.00 in0.0 mm 0.00 in0.0 mm 0.00 in0.0 mm
04:26 AM 46.0°F7.8°C 42.6°F5.9°C 88% 1.6 mph NE2.6 kmh NE 3.8 mph6.1 kmh 30.08 in1018.6 mb 0.00 in0.0 mm 0.00 in0.0 mm 0.00 in0.0 mm
04:25 AM 46.0°F7.8°C 42.6°F5.9°C 88% 2.2 mph NE3.5 kmh NE 3.8 mph6.1 kmh 30.07 in1018.3 mb 0.00 in0.0 mm 0.00 in0.0 mm 0.00 in0.0 mm
04:24 AM 46.0°F7.8°C 42.4°F5.8°C 87% 3.1 mph NE5.0 kmh NE 3.8 mph6.1 kmh 30.08 in1018.6 mb 0.00 in0.0 mm 0.00 in0.0 mm 0.00 in0.0 mm
04:22 AM 46.2°F7.9°C 42.6°F5.9°C 87% 2.2 mph NE3.5 kmh NE 3.8 mph6.1 kmh 30.09 in1019.0 mb 0.00 in0.0 mm 0.00 in0.0 mm 0.00 in0.0 mm
04:21 AM 46.2°F7.9°C 42.6°F5.9°C 87% 2.2 mph NE3.5 kmh NE 3.8 mph6.1 kmh 30.08 in1018.6 mb 0.00 in0.0 mm 0.00 in0.0 mm 0.00 in0.0 mm
04:20 AM 46.2°F7.9°C 42.6°F5.9°C 87% 2.2 mph NE3.5 kmh NE 3.8 mph6.1 kmh 30.08 in1018.6 mb 0.00 in0.0 mm 0.00 in0.0 mm 0.00 in0.0 mm
04:19 AM 46.2°F7.9°C 42.6°F5.9°C 87% 1.6 mph NE2.6 kmh NE 3.8 mph6.1 kmh 30.09 in1019.0 mb 0.00 in0.0 mm 0.00 in0.0 mm 0.00 in0.0 mm
04:18 AM 46.2°F7.9°C 42.6°F5.9°C 87% 1.6 mph NE2.6 kmh NE 4.5 mph7.2 kmh 30.08 in1018.6 mb 0.00 in0.0 mm 0.00 in0.0 mm 0.00 in0.0 mm
04:17 AM 46.2°F7.9°C 42.6°F5.9°C 87% 3.1 mph NE5.0 kmh NE 4.5 mph7.2 kmh 30.09 in1019.0 mb 0.00 in0.0 mm 0.00 in0.0 mm 0.00 in0.0 mm
04:15 AM 46.2°F7.9°C 42.6°F5.9°C 87% 1.6 mph NE2.6 kmh NE 3.1 mph5.0 kmh 30.08 in1018.6 mb 0.00 in0.0 mm 0.00 in0.0 mm 0.00 in0.0 mm
04:14 AM 46.2°F7.9°C 42.6°F5.9°C 87% 2.2 mph NE3.5 kmh NE 3.1 mph5.0 kmh 30.08 in1018.6 mb 0.00 in0.0 mm 0.00 in0.0 mm 0.00 in0.0 mm
04:13 AM 46.2°F7.9°C 42.6°F5.9°C 87% 1.6 mph NE2.6 kmh NE 3.1 mph5.0 kmh 30.08 in1018.6 mb 0.00 in0.0 mm 0.00 in0.0 mm 0.00 in0.0 mm
04:12 AM 46.2°F7.9°C 42.3°F5.7°C 86% 2.2 mph NE3.5 kmh NE 3.8 mph6.1 kmh 30.09 in1019.0 mb 0.00 in0.0 mm 0.00 in0.0 mm 0.00 in0.0 mm
04:11 AM 46.2°F7.9°C 42.3°F5.7°C 86% 3.1 mph NE5.0 kmh NE 3.8 mph6.1 kmh 30.08 in1018.6 mb 0.00 in0.0 mm 0.00 in0.0 mm 0.00 in0.0 mm
04:09 AM 46.2°F7.9°C 42.3°F5.7°C 86% 2.2 mph NE3.5 kmh NE 3.1 mph5.0 kmh 30.08 in1018.6 mb 0.00 in0.0 mm 0.00 in0.0 mm 0.00 in0.0 mm
04:08 AM 46.2°F7.9°C 42.3°F5.7°C 86% 1.6 mph NE2.6 kmh NE 3.1 mph5.0 kmh 30.08 in1018.6 mb 0.00 in0.0 mm 0.00 in0.0 mm 0.00 in0.0 mm
04:07 AM 46.2°F7.9°C 42.3°F5.7°C 86% 2.2 mph NE3.5 kmh NE 4.5 mph7.2 kmh 30.08 in1018.6 mb 0.00 in0.0 mm 0.00 in0.0 mm 0.00 in0.0 mm
04:06 AM 46.6°F8.1°C 42.6°F5.9°C 86% 2.2 mph E3.5 kmh E 4.5 mph7.2 kmh 30.08 in1018.6 mb 0.00 in0.0 mm 0.00 in0.0 mm 0.00 in0.0 mm
04:05 AM 46.6°F8.1°C 42.3°F5.7°C 85% 1.6 mph NE2.6 kmh NE 3.8 mph6.1 kmh 30.08 in1018.6 mb 0.00 in0.0 mm 0.00 in0.0 mm 0.00 in0.0 mm
04:04 AM 46.6°F8.1°C 42.3°F5.7°C 85% 2.2 mph NE3.5 kmh NE 3.1 mph5.0 kmh 30.08 in1018.6 mb 0.00 in0.0 mm 0.00 in0.0 mm 0.00 in0.0 mm
04:02 AM 46.6°F8.1°C 42.3°F5.7°C 85% 2.2 mph NE3.5 kmh NE 3.8 mph6.1 kmh 30.08 in1018.6 mb 0.00 in0.0 mm 0.00 in0.0 mm 0.00 in0.0 mm
04:01 AM 46.6°F8.1°C 42.3°F5.7°C 85% 2.2 mph NE3.5 kmh NE 5.4 mph8.7 kmh 30.08 in1018.6 mb 0.00 in0.0 mm 0.00 in0.0 mm 0.00 in0.0 mm
04:00 AM 46.6°F8.1°C 42.3°F5.7°C 85% 3.1 mph NE5.0 kmh NE 6.0 mph9.7 kmh 30.08 in1018.6 mb 0.00 in0.0 mm 0.00 in0.0 mm 0.00 in0.0 mm
03:59 AM 46.6°F8.1°C 42.3°F5.7°C 85% 3.8 mph 6.1 kmh 6.0 mph9.7 kmh 30.09 in1019.0 mb 0.00 in0.0 mm 0.00 in0.0 mm 0.00 in0.0 mm
03:58 AM 46.6°F8.1°C 42.3°F5.7°C 85% 3.1 mph NE5.0 kmh NE 4.5 mph7.2 kmh 30.09 in1019.0 mb 0.00 in0.0 mm 0.00 in0.0 mm 0.00 in0.0 mm
03:57 AM 46.6°F8.1°C 42.3°F5.7°C 85% 2.2 mph NE3.5 kmh NE 3.8 mph6.1 kmh 30.08 in1018.6 mb 0.00 in0.0 mm 0.00 in0.0 mm 0.00 in0.0 mm
03:55 AM 46.6°F8.1°C 42.3°F5.7°C 85% 2.2 mph ENE3.5 kmh ENE 3.8 mph6.1 kmh 30.08 in1018.6 mb 0.00 in0.0 mm 0.00 in0.0 mm 0.00 in0.0 mm
03:54 AM 46.6°F8.1°C 42.3°F5.7°C 85% 1.6 mph NE2.6 kmh NE 3.1 mph5.0 kmh 30.09 in1019.0 mb 0.00 in0.0 mm 0.00 in0.0 mm 0.00 in0.0 mm
03:53 AM 46.6°F8.1°C 42.3°F5.7°C 85% 2.2 mph NE3.5 kmh NE 4.5 mph7.2 kmh 30.09 in1019.0 mb 0.00 in0.0 mm 0.00 in0.0 mm 0.00 in0.0 mm
03:52 AM 46.8°F8.2°C 42.4°F5.8°C 85% 2.2 mph NE3.5 kmh NE 4.5 mph7.2 kmh 30.09 in1019.0 mb 0.00 in0.0 mm 0.00 in0.0 mm 0.00 in0.0 mm
03:51 AM 46.8°F8.2°C 42.4°F5.8°C 85% 2.2 mph NE3.5 kmh NE 4.5 mph7.2 kmh 30.08 in1018.6 mb 0.00 in0.0 mm 0.00 in0.0 mm 0.00 in0.0 mm
03:50 AM 46.8°F8.2°C 42.4°F5.8°C 85% 2.2 mph NE3.5 kmh NE 4.5 mph7.2 kmh 30.08 in1018.6 mb 0.00 in0.0 mm 0.00 in0.0 mm 0.00 in0.0 mm
03:48 AM 46.8°F8.2°C 42.4°F5.8°C 85% 3.1 mph NE5.0 kmh NE 4.5 mph7.2 kmh 30.08 in1018.6 mb 0.00 in0.0 mm 0.00 in0.0 mm 0.00 in0.0 mm
03:47 AM 46.8°F8.2°C 42.4°F5.8°C 85% 4.5 mph NE7.2 kmh NE 6.0 mph9.7 kmh 30.09 in1019.0 mb 0.00 in0.0 mm 0.00 in0.0 mm 0.00 in0.0 mm
03:46 AM 46.8°F8.2°C 42.4°F5.8°C 85% 3.1 mph NE5.0 kmh NE 4.5 mph7.2 kmh 30.09 in1019.0 mb 0.00 in0.0 mm 0.00 in0.0 mm 0.00 in0.0 mm
03:45 AM 46.8°F8.2°C 42.4°F5.8°C 85% 2.2 mph NE3.5 kmh NE 4.5 mph7.2 kmh 30.08 in1018.6 mb 0.00 in0.0 mm 0.00 in0.0 mm 0.00 in0.0 mm
03:44 AM 46.8°F8.2°C 42.4°F5.8°C 85% 3.8 mph NE6.1 kmh NE 4.5 mph7.2 kmh 30.09 in1019.0 mb 0.00 in0.0 mm 0.00 in0.0 mm 0.00 in0.0 mm
03:42 AM 46.8°F8.2°C 42.4°F5.8°C 85% 1.6 mph NE2.6 kmh NE 3.8 mph6.1 kmh 30.08 in1018.6 mb 0.00 in0.0 mm 0.00 in0.0 mm 0.00 in0.0 mm
03:41 AM 46.8°F8.2°C 42.3°F5.7°C 84% 2.2 mph NE3.5 kmh NE 3.8 mph6.1 kmh 30.09 in1019.0 mb 0.00 in0.0 mm 0.00 in0.0 mm 0.00 in0.0 mm
03:40 AM 46.8°F8.2°C 42.3°F5.7°C 84% 2.2 mph NE3.5 kmh NE 5.4 mph8.7 kmh 30.09 in1019.0 mb 0.00 in0.0 mm 0.00 in0.0 mm 0.00 in0.0 mm
03:39 AM 46.8°F8.2°C 42.3°F5.7°C 84% 3.8 mph NE6.1 kmh NE 5.4 mph8.7 kmh 30.09 in1019.0 mb 0.00 in0.0 mm 0.00 in0.0 mm 0.00 in0.0 mm
03:38 AM 46.9°F8.3°C 42.4°F5.8°C 84% 3.8 mph NE6.1 kmh NE 4.5 mph7.2 kmh 30.09 in1019.0 mb 0.00 in0.0 mm 0.00 in0.0 mm 0.00 in0.0 mm
03:37 AM 46.9°F8.3°C 42.4°F5.8°C 84% 2.2 mph NE3.5 kmh NE 5.4 mph8.7 kmh 30.09 in1019.0 mb 0.00 in0.0 mm 0.00 in0.0 mm 0.00 in0.0 mm
03:35 AM 46.9°F8.3°C 42.4°F5.8°C 84% 3.8 mph NE6.1 kmh NE 5.4 mph8.7 kmh 30.09 in1019.0 mb 0.00 in0.0 mm 0.00 in0.0 mm 0.00 in0.0 mm
03:34 AM 46.9°F8.3°C 42.4°F5.8°C 84% 1.6 mph NE2.6 kmh NE 3.1 mph5.0 kmh 30.09 in1019.0 mb 0.00 in0.0 mm 0.00 in0.0 mm 0.00 in0.0 mm
03:33 AM 46.9°F8.3°C 42.4°F5.8°C 84% 2.2 mph NE3.5 kmh NE 3.8 mph6.1 kmh 30.09 in1019.0 mb 0.00 in0.0 mm 0.00 in0.0 mm 0.00 in0.0 mm
03:32 AM 46.9°F8.3°C 42.4°F5.8°C 84% 2.2 mph NE3.5 kmh NE 5.4 mph8.7 kmh 30.09 in1019.0 mb 0.00 in0.0 mm 0.00 in0.0 mm 0.00 in0.0 mm
03:31 AM 46.9°F8.3°C 42.4°F5.8°C 84% 3.1 mph 5.0 kmh 5.4 mph8.7 kmh 30.08 in1018.6 mb 0.00 in0.0 mm 0.00 in0.0 mm 0.00 in0.0 mm
03:30 AM 46.9°F8.3°C 42.4°F5.8°C 84% 3.1 mph NE5.0 kmh NE 5.4 mph8.7 kmh 30.09 in1019.0 mb 0.00 in0.0 mm 0.00 in0.0 mm 0.00 in0.0 mm
03:28 AM 46.9°F8.3°C 42.4°F5.8°C 84% 3.8 mph NE6.1 kmh NE 5.4 mph8.7 kmh 30.08 in1018.6 mb 0.00 in0.0 mm 0.00 in0.0 mm 0.00 in0.0 mm
03:27 AM 46.9°F8.3°C 42.4°F5.8°C 84% 2.2 mph NE3.5 kmh NE 8.3 mph13.4 kmh 30.09 in1019.0 mb 0.00 in0.0 mm 0.00 in0.0 mm 0.00 in0.0 mm
03:26 AM 46.9°F8.3°C 42.4°F5.8°C 84% 4.5 mph NE7.2 kmh NE 8.3 mph13.4 kmh 30.09 in1019.0 mb 0.00 in0.0 mm 0.00 in0.0 mm 0.00 in0.0 mm
03:25 AM 46.9°F8.3°C 42.4°F5.8°C 84% 3.1 mph NE5.0 kmh NE 5.4 mph8.7 kmh 30.09 in1019.0 mb 0.00 in0.0 mm 0.00 in0.0 mm 0.00 in0.0 mm
03:24 AM 46.9°F8.3°C 42.4°F5.8°C 84% 3.1 mph NE5.0 kmh NE 6.0 mph9.7 kmh 30.09 in1019.0 mb 0.00 in0.0 mm 0.00 in0.0 mm 0.00 in0.0 mm
03:22 AM 46.9°F8.3°C 42.4°F5.8°C 84% 3.8 mph NE6.1 kmh NE 4.5 mph7.2 kmh 30.09 in1019.0 mb 0.00 in0.0 mm 0.00 in0.0 mm 0.00 in0.0 mm
03:21 AM 46.9°F8.3°C 42.4°F5.8°C 84% 3.1 mph NE5.0 kmh NE 5.4 mph8.7 kmh 30.09 in1019.0 mb 0.00 in0.0 mm 0.00 in0.0 mm 0.00 in0.0 mm
03:20 AM 46.9°F8.3°C 42.4°F5.8°C 84% 3.1 mph NE5.0 kmh NE 5.4 mph8.7 kmh 30.09 in1019.0 mb 0.00 in0.0 mm 0.00 in0.0 mm 0.00 in0.0 mm
03:19 AM 46.9°F8.3°C 42.4°F5.8°C 84% 3.1 mph NE5.0 kmh NE 4.5 mph7.2 kmh 30.09 in1019.0 mb 0.00 in0.0 mm 0.00 in0.0 mm 0.00 in0.0 mm
03:18 AM 46.9°F8.3°C 42.4°F5.8°C 84% 3.1 mph NE5.0 kmh NE 5.4 mph8.7 kmh 30.09 in1019.0 mb 0.00 in0.0 mm 0.00 in0.0 mm 0.00 in0.0 mm
03:17 AM 46.9°F8.3°C 42.4°F5.8°C 84% 2.2 mph NE3.5 kmh NE 3.8 mph6.1 kmh 30.10 in1019.3 mb 0.00 in0.0 mm 0.00 in0.0 mm 0.00 in0.0 mm
03:15 AM 46.9°F8.3°C 42.4°F5.8°C 84% 1.6 mph NE2.6 kmh NE 5.4 mph8.7 kmh 30.09 in1019.0 mb 0.00 in0.0 mm 0.00 in0.0 mm 0.00 in0.0 mm
03:14 AM 46.9°F8.3°C 42.4°F5.8°C 84% 3.1 mph NE5.0 kmh NE 5.4 mph8.7 kmh 30.09 in1019.0 mb 0.00 in0.0 mm 0.00 in0.0 mm 0.00 in0.0 mm
03:13 AM 46.9°F8.3°C 42.4°F5.8°C 84% 2.2 mph NE3.5 kmh NE 3.1 mph5.0 kmh 30.09 in1019.0 mb 0.00 in0.0 mm 0.00 in0.0 mm 0.00 in0.0 mm
03:12 AM 46.9°F8.3°C 42.4°F5.8°C 84% 2.2 mph NE3.5 kmh NE 3.8 mph6.1 kmh 30.09 in1019.0 mb 0.00 in0.0 mm 0.00 in0.0 mm 0.00 in0.0 mm
03:11 AM 46.9°F8.3°C 42.1°F5.6°C 83% 2.2 mph NE3.5 kmh NE 3.8 mph6.1 kmh 30.09 in1019.0 mb 0.00 in0.0 mm 0.00 in0.0 mm 0.00 in0.0 mm
03:10 AM 46.9°F8.3°C 42.1°F5.6°C 83% 2.2 mph NE3.5 kmh NE 4.5 mph7.2 kmh 30.09 in1019.0 mb 0.00 in0.0 mm 0.00 in0.0 mm 0.00 in0.0 mm
03:08 AM 46.9°F8.3°C 42.1°F5.6°C 83% 2.2 mph NE3.5 kmh NE 4.5 mph7.2 kmh 30.09 in1019.0 mb 0.00 in0.0 mm 0.00 in0.0 mm 0.00 in0.0 mm
03:07 AM 46.9°F8.3°C 42.1°F5.6°C 83% 2.2 mph NE3.5 kmh NE 4.5 mph7.2 kmh 30.09 in1019.0 mb 0.00 in0.0 mm 0.00 in0.0 mm 0.00 in0.0 mm
03:06 AM 47.1°F8.4°C 42.3°F5.7°C 83% 2.2 mph NE3.5 kmh NE 4.5 mph7.2 kmh 30.09 in1019.0 mb 0.00 in0.0 mm 0.00 in0.0 mm 0.00 in0.0 mm
03:05 AM 47.1°F8.4°C 42.3°F5.7°C 83% 2.2 mph NE3.5 kmh NE 3.1 mph5.0 kmh 30.09 in1019.0 mb 0.00 in0.0 mm 0.00 in0.0 mm 0.00 in0.0 mm
03:04 AM 47.1°F8.4°C 42.3°F5.7°C 83% 2.2 mph NE3.5 kmh NE 4.5 mph7.2 kmh 30.09 in1019.0 mb 0.00 in0.0 mm 0.00 in0.0 mm 0.00 in0.0 mm
03:03 AM 47.1°F8.4°C 42.3°F5.7°C 83% 1.6 mph NE2.6 kmh NE 3.1 mph5.0 kmh 30.09 in1019.0 mb 0.00 in0.0 mm 0.00 in0.0 mm 0.00 in0.0 mm
03:01 AM 47.3°F8.5°C 42.4°F5.8°C 83% 2.2 mph NE3.5 kmh NE 3.1 mph5.0 kmh 30.09 in1019.0 mb 0.00 in0.0 mm 0.00 in0.0 mm 0.00 in0.0 mm
03:00 AM 47.3°F8.5°C 42.4°F5.8°C 83% 2.2 mph NE3.5 kmh NE 6.9 mph11.1 kmh 30.09 in1019.0 mb 0.00 in0.0 mm 0.00 in0.0 mm 0.00 in0.0 mm
02:59 AM 47.3°F8.5°C 42.4°F5.8°C 83% 3.1 mph NE5.0 kmh NE 5.4 mph8.7 kmh 30.09 in1019.0 mb 0.00 in0.0 mm 0.00 in0.0 mm 0.00 in0.0 mm
02:58 AM 47.3°F8.5°C 42.4°F5.8°C 83% 1.6 mph NE2.6 kmh NE 4.5 mph7.2 kmh 30.09 in1019.0 mb 0.00 in0.0 mm 0.00 in0.0 mm 0.00 in0.0 mm
02:57 AM 47.5°F8.6°C 42.6°F5.9°C 83% 3.1 mph NE5.0 kmh NE 4.5 mph7.2 kmh 30.10 in1019.3 mb 0.00 in0.0 mm 0.00 in0.0 mm 0.00 in0.0 mm
02:55 AM 47.5°F8.6°C 42.6°F5.9°C 83% 2.2 mph NE3.5 kmh NE 3.8 mph6.1 kmh 30.10 in1019.3 mb 0.00 in0.0 mm 0.00 in0.0 mm 0.00 in0.0 mm
02:54 AM 47.5°F8.6°C 42.6°F5.9°C 83% 2.2 mph NE3.5 kmh NE 3.8 mph6.1 kmh 30.10 in1019.3 mb 0.00 in0.0 mm 0.00 in0.0 mm 0.00 in0.0 mm
02:53 AM 47.5°F8.6°C 42.6°F5.9°C 83% 2.2 mph NE3.5 kmh NE 3.8 mph6.1 kmh 30.10 in1019.3 mb 0.00 in0.0 mm 0.00 in0.0 mm 0.00 in0.0 mm
02:52 AM 47.7°F8.7°C 42.8°F6.0°C 83% 2.2 mph NNE3.5 kmh NNE 3.8 mph6.1 kmh 30.09 in1019.0 mb 0.00 in0.0 mm 0.00 in0.0 mm 0.00 in0.0 mm
02:51 AM 47.7°F8.7°C 42.8°F6.0°C 83% 2.2 mph NE3.5 kmh NE 3.8 mph6.1 kmh 30.09 in1019.0 mb 0.00 in0.0 mm 0.00 in0.0 mm 0.00 in0.0 mm
02:50 AM 47.7°F8.7°C 42.8°F6.0°C 83% 2.2 mph NE3.5 kmh NE 3.8 mph6.1 kmh 30.10 in1019.3 mb 0.00 in0.0 mm 0.00 in0.0 mm 0.00 in0.0 mm
02:48 AM 47.8°F8.8°C 43.0°F6.1°C 83% 1.6 mph NE2.6 kmh NE 3.8 mph6.1 kmh 30.10 in1019.3 mb 0.00 in0.0 mm 0.00 in0.0 mm 0.00 in0.0 mm
02:47 AM 47.8°F8.8°C 43.0°F6.1°C 83% 2.2 mph 3.5 kmh 3.8 mph6.1 kmh 30.10 in1019.3 mb 0.00 in0.0 mm 0.00 in0.0 mm 0.00 in0.0 mm
02:46 AM 48.0°F8.9°C 43.2°F6.2°C 83% 2.2 mph 3.5 kmh 3.8 mph6.1 kmh 30.09 in1019.0 mb 0.00 in0.0 mm 0.00 in0.0 mm 0.00 in0.0 mm
02:45 AM 48.0°F8.9°C 43.2°F6.2°C 83% 2.2 mph NE3.5 kmh NE 4.5 mph7.2 kmh 30.10 in1019.3 mb 0.00 in0.0 mm 0.00 in0.0 mm 0.00 in0.0 mm
02:44 AM 48.0°F8.9°C 43.2°F6.2°C 83% 1.6 mph NE2.6 kmh NE 3.8 mph6.1 kmh 30.10 in1019.3 mb 0.00 in0.0 mm 0.00 in0.0 mm 0.00 in0.0 mm
02:43 AM 48.0°F8.9°C 43.2°F6.2°C 83% 2.2 mph NE3.5 kmh NE 5.4 mph8.7 kmh 30.10 in1019.3 mb 0.00 in0.0 mm 0.00 in0.0 mm 0.00 in0.0 mm
02:41 AM 48.2°F9.0°C 43.0°F6.1°C 82% 3.1 mph NE5.0 kmh NE 5.4 mph8.7 kmh 30.10 in1019.3 mb 0.00 in0.0 mm 0.00 in0.0 mm 0.00 in0.0 mm
02:40 AM 48.2°F9.0°C 43.0°F6.1°C 82% 2.2 mph NE3.5 kmh NE 3.8 mph6.1 kmh 30.10 in1019.3 mb 0.00 in0.0 mm 0.00 in0.0 mm 0.00 in0.0 mm
02:39 AM 48.2°F9.0°C 43.0°F6.1°C 82% 3.1 mph NE5.0 kmh NE 3.8 mph6.1 kmh 30.10 in1019.3 mb 0.00 in0.0 mm 0.00 in0.0 mm 0.00 in0.0 mm
02:38 AM 48.2°F9.0°C 43.0°F6.1°C 82% 2.2 mph NE3.5 kmh NE 3.8 mph6.1 kmh 30.10 in1019.3 mb 0.00 in0.0 mm 0.00 in0.0 mm 0.00 in0.0 mm
02:37 AM 48.2°F9.0°C 43.0°F6.1°C 82% 2.2 mph NE3.5 kmh NE 3.8 mph6.1 kmh 30.10 in1019.3 mb 0.00 in0.0 mm 0.00 in0.0 mm 0.00 in0.0 mm
02:35 AM 48.2°F9.0°C 43.0°F6.1°C 82% 3.1 mph E5.0 kmh E 3.8 mph6.1 kmh 30.10 in1019.3 mb 0.00 in0.0 mm 0.00 in0.0 mm 0.00 in0.0 mm
02:34 AM 48.2°F9.0°C 43.0°F6.1°C 82% 3.1 mph NE5.0 kmh NE 5.4 mph8.7 kmh 30.10 in1019.3 mb 0.00 in0.0 mm 0.00 in0.0 mm 0.00 in0.0 mm
02:33 AM 48.2°F9.0°C 43.0°F6.1°C 82% 3.8 mph NE6.1 kmh NE 5.4 mph8.7 kmh 30.10 in1019.3 mb 0.00 in0.0 mm 0.00 in0.0 mm 0.00 in0.0 mm
02:32 AM 48.2°F9.0°C 43.0°F6.1°C 82% 3.8 mph NE6.1 kmh NE 6.9 mph11.1 kmh 30.09 in1019.0 mb 0.00 in0.0 mm 0.00 in0.0 mm 0.00 in0.0 mm
02:31 AM 48.2°F9.0°C 43.0°F6.1°C 82% 3.1 mph NE5.0 kmh NE 5.4 mph8.7 kmh 30.10 in1019.3 mb 0.00 in0.0 mm 0.00 in0.0 mm 0.00 in0.0 mm
02:30 AM 48.2°F9.0°C 43.0°F6.1°C 82% 3.1 mph NE5.0 kmh NE 6.0 mph9.7 kmh 30.10 in1019.3 mb 0.00 in0.0 mm 0.00 in0.0 mm 0.00 in0.0 mm
02:28 AM 48.2°F9.0°C 43.0°F6.1°C 82% 3.8 mph NE6.1 kmh NE 6.0 mph9.7 kmh 30.10 in1019.3 mb 0.00 in0.0 mm 0.00 in0.0 mm 0.00 in0.0 mm
02:27 AM 48.2°F9.0°C 43.0°F6.1°C 82% 3.8 mph 6.1 kmh 5.4 mph8.7 kmh 30.11 in1019.6 mb 0.00 in0.0 mm 0.00 in0.0 mm 0.00 in0.0 mm
02:26 AM 48.2°F9.0°C 43.0°F6.1°C 82% 2.2 mph NE3.5 kmh NE 4.5 mph7.2 kmh 30.10 in1019.3 mb 0.00 in0.0 mm 0.00 in0.0 mm 0.00 in0.0 mm
02:25 AM 48.2°F9.0°C 43.0°F6.1°C 82% 2.2 mph NE3.5 kmh NE 5.4 mph8.7 kmh 30.10 in1019.3 mb 0.00 in0.0 mm 0.00 in0.0 mm 0.00 in0.0 mm
02:24 AM 48.2°F9.0°C 43.0°F6.1°C 82% 2.2 mph SE3.5 kmh SE 5.4 mph8.7 kmh 30.11 in1019.6 mb 0.00 in0.0 mm 0.00 in0.0 mm 0.00 in0.0 mm
02:23 AM 48.2°F9.0°C 43.0°F6.1°C 82% 2.2 mph NE3.5 kmh NE 5.4 mph8.7 kmh 30.10 in1019.3 mb 0.00 in0.0 mm 0.00 in0.0 mm 0.00 in0.0 mm
02:21 AM 48.2°F9.0°C 43.0°F6.1°C 82% 3.1 mph NE5.0 kmh NE 4.5 mph7.2 kmh 30.10 in1019.3 mb 0.00 in0.0 mm 0.00 in0.0 mm 0.00 in0.0 mm
02:20 AM 48.2°F9.0°C 43.0°F6.1°C 82% 1.6 mph NE2.6 kmh NE 4.5 mph7.2 kmh 30.10 in1019.3 mb 0.00 in0.0 mm 0.00 in0.0 mm 0.00 in0.0 mm
02:19 AM 48.4°F9.1°C 43.2°F6.2°C 82% 3.1 mph NE5.0 kmh NE 5.4 mph8.7 kmh 30.10 in1019.3 mb 0.00 in0.0 mm 0.00 in0.0 mm 0.00 in0.0 mm
02:18 AM 48.4°F9.1°C 43.2°F6.2°C 82% 3.8 mph NE6.1 kmh NE 5.4 mph8.7 kmh 30.10 in1019.3 mb 0.00 in0.0 mm 0.00 in0.0 mm 0.00 in0.0 mm
02:17 AM 48.4°F9.1°C 43.2°F6.2°C 82% 3.1 mph NE5.0 kmh NE 5.4 mph8.7 kmh 30.09 in1019.0 mb 0.00 in0.0 mm 0.00 in0.0 mm 0.00 in0.0 mm
02:16 AM 48.4°F9.1°C 43.2°F6.2°C 82% 3.8 mph NE6.1 kmh NE 5.4 mph8.7 kmh 30.10 in1019.3 mb 0.00 in0.0 mm 0.00 in0.0 mm 0.00 in0.0 mm
02:14 AM 48.4°F9.1°C 43.2°F6.2°C 82% 2.2 mph NE3.5 kmh NE 4.5 mph7.2 kmh 30.10 in1019.3 mb 0.00 in0.0 mm 0.00 in0.0 mm 0.00 in0.0 mm
02:13 AM 48.4°F9.1°C 43.2°F6.2°C 82% 3.1 mph NE5.0 kmh NE 6.0 mph9.7 kmh 30.10 in1019.3 mb 0.00 in0.0 mm 0.00 in0.0 mm 0.00 in0.0 mm
02:12 AM 48.4°F9.1°C 43.2°F6.2°C 82% 3.1 mph NE5.0 kmh NE 4.5 mph7.2 kmh 30.10 in1019.3 mb 0.00 in0.0 mm 0.00 in0.0 mm 0.00 in0.0 mm
02:11 AM 48.4°F9.1°C 43.2°F6.2°C 82% 3.8 mph NE6.1 kmh NE 4.5 mph7.2 kmh 30.11 in1019.6 mb 0.00 in0.0 mm 0.00 in0.0 mm 0.00 in0.0 mm
02:10 AM 48.4°F9.1°C 43.2°F6.2°C 82% 3.8 mph E6.1 kmh E 5.4 mph8.7 kmh 30.10 in1019.3 mb 0.00 in0.0 mm 0.00 in0.0 mm 0.00 in0.0 mm
02:08 AM 48.4°F9.1°C 43.2°F6.2°C 82% 3.1 mph NE5.0 kmh NE 6.0 mph9.7 kmh 30.10 in1019.3 mb 0.00 in0.0 mm 0.00 in0.0 mm 0.00 in0.0 mm
02:07 AM 48.4°F9.1°C 43.2°F6.2°C 82% 4.5 mph NE7.2 kmh NE 7.6 mph12.2 kmh 30.10 in1019.3 mb 0.00 in0.0 mm 0.00 in0.0 mm 0.00 in0.0 mm
02:06 AM 48.4°F9.1°C 43.2°F6.2°C 82% 3.8 mph NE6.1 kmh NE 6.9 mph11.1 kmh 30.10 in1019.3 mb 0.00 in0.0 mm 0.00 in0.0 mm 0.00 in0.0 mm
02:05 AM 48.4°F9.1°C 43.2°F6.2°C 82% 3.8 mph NE6.1 kmh NE 6.9 mph11.1 kmh 30.10 in1019.3 mb 0.00 in0.0 mm 0.00 in0.0 mm 0.00 in0.0 mm
02:04 AM 48.4°F9.1°C 43.2°F6.2°C 82% 3.8 mph ENE6.1 kmh ENE -- 30.11 in1019.6 mb 0.00 in0.0 mm 0.00 in0.0 mm 0.00 in0.0 mm
01:59 AM 48.4°F9.1°C 43.2°F6.2°C 82% 4.5 mph NE7.2 kmh NE 7.6 mph12.2 kmh 30.10 in1019.3 mb 0.00 in0.0 mm 0.00 in0.0 mm 0.00 in0.0 mm
01:58 AM 48.6°F9.2°C 43.3°F6.3°C 82% 4.5 mph NE7.2 kmh NE 6.9 mph11.1 kmh 30.10 in1019.3 mb 0.00 in0.0 mm 0.00 in0.0 mm 0.00 in0.0 mm
01:57 AM 48.6°F9.2°C 43.3°F6.3°C 82% 3.8 mph ENE6.1 kmh ENE 6.0 mph9.7 kmh 30.11 in1019.6 mb 0.00 in0.0 mm 0.00 in0.0 mm 0.00 in0.0 mm
01:56 AM 48.6°F9.2°C 43.3°F6.3°C 82% 4.5 mph NE7.2 kmh NE 6.0 mph9.7 kmh 30.10 in1019.3 mb 0.00 in0.0 mm 0.00 in0.0 mm 0.00 in0.0 mm
01:55 AM 48.6°F9.2°C 43.3°F6.3°C 82% 3.1 mph NE5.0 kmh NE 4.5 mph7.2 kmh 30.10 in1019.3 mb 0.00 in0.0 mm 0.00 in0.0 mm 0.00 in0.0 mm
01:54 AM 48.7°F9.3°C 43.5°F6.4°C 82% 2.2 mph NE3.5 kmh NE 4.5 mph7.2 kmh 30.10 in1019.3 mb 0.00 in0.0 mm 0.00 in0.0 mm 0.00 in0.0 mm
01:52 AM 48.7°F9.3°C 43.5°F6.4°C 82% 3.1 mph NE5.0 kmh NE 6.0 mph9.7 kmh 30.10 in1019.3 mb 0.00 in0.0 mm 0.00 in0.0 mm 0.00 in0.0 mm
01:51 AM 48.7°F9.3°C 43.5°F6.4°C 82% 6.0 mph NE9.7 kmh NE 7.6 mph12.2 kmh 30.11 in1019.6 mb 0.00 in0.0 mm 0.00 in0.0 mm 0.00 in0.0 mm
01:50 AM 48.7°F9.3°C 43.5°F6.4°C 82% 6.0 mph NE9.7 kmh NE 7.6 mph12.2 kmh 30.11 in1019.6 mb 0.00 in0.0 mm 0.00 in0.0 mm 0.00 in0.0 mm
01:49 AM 48.7°F9.3°C 43.5°F6.4°C 82% 3.1 mph NE5.0 kmh NE 6.0 mph9.7 kmh 30.10 in1019.3 mb 0.00 in0.0 mm 0.00 in0.0 mm 0.00 in0.0 mm
01:48 AM 48.7°F9.3°C 43.5°F6.4°C 82% 3.8 mph NE6.1 kmh NE 6.0 mph9.7 kmh 30.10 in1019.3 mb 0.00 in0.0 mm 0.00 in0.0 mm 0.00 in0.0 mm
01:46 AM 48.7°F9.3°C 43.5°F6.4°C 82% 7.6 mph NE12.2 kmh NE 10.7 mph17.2 kmh 30.10 in1019.3 mb 0.00 in0.0 mm 0.00 in0.0 mm 0.00 in0.0 mm
01:45 AM 48.7°F9.3°C 43.5°F6.4°C 82% 5.4 mph NE8.7 kmh NE 6.9 mph11.1 kmh 30.10 in1019.3 mb 0.00 in0.0 mm 0.00 in0.0 mm 0.00 in0.0 mm
01:44 AM 48.7°F9.3°C 43.5°F6.4°C 82% 3.1 mph NE5.0 kmh NE 5.4 mph8.7 kmh 30.11 in1019.6 mb 0.00 in0.0 mm 0.00 in0.0 mm 0.00 in0.0 mm
01:43 AM 48.7°F9.3°C 43.5°F6.4°C 82% 3.8 mph NE6.1 kmh NE 5.4 mph8.7 kmh 30.11 in1019.6 mb 0.00 in0.0 mm 0.00 in0.0 mm 0.00 in0.0 mm
01:42 AM 48.7°F9.3°C 43.5°F6.4°C 82% 3.8 mph NE6.1 kmh NE 7.6 mph12.2 kmh 30.11 in1019.6 mb 0.00 in0.0 mm 0.00 in0.0 mm 0.00 in0.0 mm
01:41 AM 48.7°F9.3°C 43.5°F6.4°C 82% 6.0 mph NE9.7 kmh NE 7.6 mph12.2 kmh 30.11 in1019.6 mb 0.00 in0.0 mm 0.00 in0.0 mm 0.00 in0.0 mm
01:39 AM 48.7°F9.3°C 43.5°F6.4°C 82% 4.5 mph NE7.2 kmh NE 6.9 mph11.1 kmh 30.11 in1019.6 mb 0.00 in0.0 mm 0.00 in0.0 mm 0.00 in0.0 mm
01:38 AM 48.7°F9.3°C 43.5°F6.4°C 82% 3.1 mph NE5.0 kmh NE 6.9 mph11.1 kmh 30.11 in1019.6 mb 0.00 in0.0 mm 0.00 in0.0 mm 0.00 in0.0 mm
01:37 AM 48.7°F9.3°C 43.5°F6.4°C 82% 3.8 mph NE6.1 kmh NE 6.0 mph9.7 kmh 30.11 in1019.6 mb 0.00 in0.0 mm 0.00 in0.0 mm 0.00 in0.0 mm
01:36 AM 48.7°F9.3°C 43.5°F6.4°C 82% 3.8 mph NE6.1 kmh NE 5.4 mph8.7 kmh 30.11 in1019.6 mb 0.00 in0.0 mm 0.00 in0.0 mm 0.00 in0.0 mm
01:35 AM 48.7°F9.3°C 43.5°F6.4°C 82% 3.8 mph NE6.1 kmh NE 5.4 mph8.7 kmh 30.11 in1019.6 mb 0.00 in0.0 mm 0.00 in0.0 mm 0.00 in0.0 mm
01:34 AM 48.7°F9.3°C 43.9°F6.6°C 83% 6.0 mph NE9.7 kmh NE 9.2 mph14.8 kmh 30.11 in1019.6 mb 0.00 in0.0 mm 0.00 in0.0 mm 0.00 in0.0 mm
01:32 AM 48.7°F9.3°C 43.9°F6.6°C 83% 3.8 mph NE6.1 kmh NE 6.9 mph11.1 kmh 30.11 in1019.6 mb 0.00 in0.0 mm 0.00 in0.0 mm 0.00 in0.0 mm
01:31 AM 48.7°F9.3°C 43.9°F6.6°C 83% 4.5 mph NE7.2 kmh NE 6.0 mph9.7 kmh 30.12 in1020.0 mb 0.00 in0.0 mm 0.00 in0.0 mm 0.00 in0.0 mm
01:30 AM 48.6°F9.2°C 43.7°F6.5°C 83% 4.5 mph NE7.2 kmh NE 6.9 mph11.1 kmh 30.12 in1020.0 mb 0.00 in0.0 mm 0.00 in0.0 mm 0.00 in0.0 mm
01:29 AM 48.6°F9.2°C 43.7°F6.5°C 83% 3.1 mph NE5.0 kmh NE 8.3 mph13.4 kmh 30.11 in1019.6 mb 0.00 in0.0 mm 0.00 in0.0 mm 0.00 in0.0 mm
01:28 AM 48.6°F9.2°C 43.7°F6.5°C 83% 4.5 mph NE7.2 kmh NE 8.3 mph13.4 kmh 30.11 in1019.6 mb 0.00 in0.0 mm 0.00 in0.0 mm 0.00 in0.0 mm
01:26 AM 48.6°F9.2°C 43.7°F6.5°C 83% 4.5 mph NE7.2 kmh NE 6.9 mph11.1 kmh 30.11 in1019.6 mb 0.00 in0.0 mm 0.00 in0.0 mm 0.00 in0.0 mm
01:25 AM 48.6°F9.2°C 43.7°F6.5°C 83% 3.8 mph NE6.1 kmh NE 6.9 mph11.1 kmh 30.11 in1019.6 mb 0.00 in0.0 mm 0.00 in0.0 mm 0.00 in0.0 mm
01:24 AM 48.6°F9.2°C 43.7°F6.5°C 83% 5.4 mph NE8.7 kmh NE 6.9 mph11.1 kmh 30.11 in1019.6 mb 0.00 in0.0 mm 0.00 in0.0 mm 0.00 in0.0 mm
01:23 AM 48.6°F9.2°C 43.7°F6.5°C 83% 3.1 mph E5.0 kmh E 4.5 mph7.2 kmh 30.11 in1019.6 mb 0.00 in0.0 mm 0.00 in0.0 mm 0.00 in0.0 mm
01:22 AM 48.6°F9.2°C 43.7°F6.5°C 83% 3.1 mph E5.0 kmh E 6.9 mph11.1 kmh 30.11 in1019.6 mb 0.00 in0.0 mm 0.00 in0.0 mm 0.00 in0.0 mm
01:21 AM 48.6°F9.2°C 43.7°F6.5°C 83% 3.8 mph NE6.1 kmh NE 6.9 mph11.1 kmh 30.12 in1020.0 mb 0.00 in0.0 mm 0.00 in0.0 mm 0.00 in0.0 mm
01:19 AM 48.6°F9.2°C 43.7°F6.5°C 83% 3.8 mph NE6.1 kmh NE 6.9 mph11.1 kmh 30.12 in1020.0 mb 0.00 in0.0 mm 0.00 in0.0 mm 0.00 in0.0 mm
01:18 AM 48.6°F9.2°C 43.7°F6.5°C 83% 3.8 mph E6.1 kmh E 5.4 mph8.7 kmh 30.11 in1019.6 mb 0.00 in0.0 mm 0.00 in0.0 mm 0.00 in0.0 mm
01:17 AM 48.6°F9.2°C 43.7°F6.5°C 83% 3.8 mph NE6.1 kmh NE 6.9 mph11.1 kmh 30.11 in1019.6 mb 0.00 in0.0 mm 0.00 in0.0 mm 0.00 in0.0 mm
01:16 AM 48.6°F9.2°C 43.7°F6.5°C 83% 4.5 mph NE7.2 kmh NE 6.9 mph11.1 kmh 30.12 in1020.0 mb 0.00 in0.0 mm 0.00 in0.0 mm 0.00 in0.0 mm
01:15 AM 48.6°F9.2°C 43.7°F6.5°C 83% 3.8 mph NE6.1 kmh NE 6.9 mph11.1 kmh 30.12 in1020.0 mb 0.00 in0.0 mm 0.00 in0.0 mm 0.00 in0.0 mm
01:14 AM 48.6°F9.2°C 43.7°F6.5°C 83% 4.5 mph E7.2 kmh E 7.6 mph12.2 kmh 30.12 in1020.0 mb 0.00 in0.0 mm 0.00 in0.0 mm 0.00 in0.0 mm
01:12 AM 48.6°F9.2°C 43.7°F6.5°C 83% 5.4 mph E8.7 kmh E 7.6 mph12.2 kmh 30.12 in1020.0 mb 0.00 in0.0 mm 0.00 in0.0 mm 0.00 in0.0 mm
01:11 AM 48.6°F9.2°C 43.7°F6.5°C 83% 3.1 mph NE5.0 kmh NE 6.0 mph9.7 kmh 30.13 in1020.3 mb 0.00 in0.0 mm 0.00 in0.0 mm 0.00 in0.0 mm
01:10 AM 48.6°F9.2°C 43.7°F6.5°C 83% 4.5 mph NE7.2 kmh NE 6.0 mph9.7 kmh 30.12 in1020.0 mb 0.00 in0.0 mm 0.00 in0.0 mm 0.00 in0.0 mm
01:09 AM 48.6°F9.2°C 43.7°F6.5°C 83% 3.8 mph E6.1 kmh E 7.6 mph12.2 kmh 30.13 in1020.3 mb 0.00 in0.0 mm 0.00 in0.0 mm 0.00 in0.0 mm
01:08 AM 48.6°F9.2°C 43.7°F6.5°C 83% 4.5 mph E7.2 kmh E 7.6 mph12.2 kmh 30.12 in1020.0 mb 0.00 in0.0 mm 0.00 in0.0 mm 0.00 in0.0 mm
01:07 AM 48.6°F9.2°C 43.7°F6.5°C 83% 3.8 mph E6.1 kmh E 5.4 mph8.7 kmh 30.13 in1020.3 mb 0.00 in0.0 mm 0.00 in0.0 mm 0.00 in0.0 mm
01:05 AM 48.6°F9.2°C 43.7°F6.5°C 83% 3.8 mph ENE6.1 kmh ENE 6.0 mph9.7 kmh 30.13 in1020.3 mb 0.00 in0.0 mm 0.00 in0.0 mm 0.00 in0.0 mm
01:04 AM 48.6°F9.2°C 43.7°F6.5°C 83% 3.8 mph E6.1 kmh E 6.9 mph11.1 kmh 30.13 in1020.3 mb 0.00 in0.0 mm 0.00 in0.0 mm 0.00 in0.0 mm
01:03 AM 48.6°F9.2°C 43.7°F6.5°C 83% 3.8 mph E6.1 kmh E 5.4 mph8.7 kmh 30.13 in1020.3 mb 0.00 in0.0 mm 0.00 in0.0 mm 0.00 in0.0 mm
01:02 AM 48.6°F9.2°C 43.7°F6.5°C 83% 3.1 mph E5.0 kmh E 5.4 mph8.7 kmh 30.13 in1020.3 mb 0.00 in0.0 mm 0.00 in0.0 mm 0.00 in0.0 mm
01:01 AM 48.6°F9.2°C 43.7°F6.5°C 83% 3.1 mph E5.0 kmh E 7.6 mph12.2 kmh 30.13 in1020.3 mb 0.00 in0.0 mm 0.00 in0.0 mm 0.00 in0.0 mm
12:59 AM 48.6°F9.2°C 43.7°F6.5°C 83% 5.4 mph E8.7 kmh E 7.6 mph12.2 kmh 30.13 in1020.3 mb 0.00 in0.0 mm 0.00 in0.0 mm 0.00 in0.0 mm
12:58 AM 48.6°F9.2°C 43.7°F6.5°C 83% 3.1 mph E5.0 kmh E 4.5 mph7.2 kmh 30.12 in1020.0 mb 0.00 in0.0 mm 0.00 in0.0 mm 0.00 in0.0 mm
12:57 AM 48.6°F9.2°C 43.7°F6.5°C 83% 3.1 mph NE5.0 kmh NE 3.8 mph6.1 kmh 30.13 in1020.3 mb 0.00 in0.0 mm 0.00 in0.0 mm 0.00 in0.0 mm
12:56 AM 48.7°F9.3°C 43.9°F6.6°C 83% 3.8 mph E6.1 kmh E 5.4 mph8.7 kmh 30.13 in1020.3 mb 0.00 in0.0 mm 0.00 in0.0 mm 0.00 in0.0 mm
12:55 AM 48.7°F9.3°C 43.9°F6.6°C 83% 3.8 mph E6.1 kmh E 5.4 mph8.7 kmh 30.12 in1020.0 mb 0.00 in0.0 mm 0.00 in0.0 mm 0.00 in0.0 mm
12:54 AM 48.7°F9.3°C 43.9°F6.6°C 83% 3.8 mph E6.1 kmh E 6.0 mph9.7 kmh 30.13 in1020.3 mb 0.00 in0.0 mm 0.00 in0.0 mm 0.00 in0.0 mm
12:52 AM 48.7°F9.3°C 43.9°F6.6°C 83% 3.1 mph E5.0 kmh E 6.0 mph9.7 kmh 30.13 in1020.3 mb 0.00 in0.0 mm 0.00 in0.0 mm 0.00 in0.0 mm
12:51 AM 48.7°F9.3°C 43.9°F6.6°C 83% 5.4 mph NE8.7 kmh NE 6.9 mph11.1 kmh 30.13 in1020.3 mb 0.00 in0.0 mm 0.00 in0.0 mm 0.00 in0.0 mm
12:50 AM 48.7°F9.3°C 43.9°F6.6°C 83% 5.4 mph E8.7 kmh E 6.9 mph11.1 kmh 30.13 in1020.3 mb 0.00 in0.0 mm 0.00 in0.0 mm 0.00 in0.0 mm
12:49 AM 48.7°F9.3°C 43.9°F6.6°C 83% 3.8 mph E6.1 kmh E 6.9 mph11.1 kmh 30.12 in1020.0 mb 0.00 in0.0 mm 0.00 in0.0 mm 0.00 in0.0 mm
12:48 AM 48.7°F9.3°C 43.9°F6.6°C 83% 5.4 mph E8.7 kmh E 6.9 mph11.1 kmh 30.13 in1020.3 mb 0.00 in0.0 mm 0.00 in0.0 mm 0.00 in0.0 mm
12:47 AM 48.7°F9.3°C 43.9°F6.6°C 83% 3.1 mph E5.0 kmh E 6.0 mph9.7 kmh 30.13 in1020.3 mb 0.00 in0.0 mm 0.00 in0.0 mm 0.00 in0.0 mm
12:45 AM 48.7°F9.3°C 43.9°F6.6°C 83% 3.8 mph E6.1 kmh E 6.0 mph9.7 kmh 30.13 in1020.3 mb 0.00 in0.0 mm 0.00 in0.0 mm 0.00 in0.0 mm
12:44 AM 48.7°F9.3°C 43.9°F6.6°C 83% 3.8 mph E6.1 kmh E 5.4 mph8.7 kmh 30.13 in1020.3 mb 0.00 in0.0 mm 0.00 in0.0 mm 0.00 in0.0 mm
12:43 AM 48.7°F9.3°C 43.9°F6.6°C 83% 4.5 mph E7.2 kmh E 5.4 mph8.7 kmh 30.13 in1020.3 mb 0.00 in0.0 mm 0.00 in0.0 mm 0.00 in0.0 mm
12:42 AM 48.9°F9.4°C 44.1°F6.7°C 83% 3.8 mph NE6.1 kmh NE 5.4 mph8.7 kmh 30.13 in1020.3 mb 0.00 in0.0 mm 0.00 in0.0 mm 0.00 in0.0 mm
12:41 AM 48.9°F9.4°C 44.1°F6.7°C 83% 3.8 mph E6.1 kmh E 5.4 mph8.7 kmh 30.13 in1020.3 mb 0.00 in0.0 mm 0.00 in0.0 mm 0.00 in0.0 mm
12:39 AM 48.9°F9.4°C 44.1°F6.7°C 83% 3.1 mph E5.0 kmh E 4.5 mph7.2 kmh 30.12 in1020.0 mb 0.00 in0.0 mm 0.00 in0.0 mm 0.00 in0.0 mm
12:38 AM 48.9°F9.4°C 44.1°F6.7°C 83% 3.8 mph NE6.1 kmh NE 6.0 mph9.7 kmh 30.13 in1020.3 mb 0.00 in0.0 mm 0.00 in0.0 mm 0.00 in0.0 mm
12:37 AM 49.1°F9.5°C 44.2°F6.8°C 83% 3.1 mph ENE5.0 kmh ENE 4.5 mph7.2 kmh 30.13 in1020.3 mb 0.00 in0.0 mm 0.00 in0.0 mm 0.00 in0.0 mm
12:36 AM 49.1°F9.5°C 44.2°F6.8°C 83% 3.1 mph NE5.0 kmh NE 6.0 mph9.7 kmh 30.13 in1020.3 mb 0.00 in0.0 mm 0.00 in0.0 mm 0.00 in0.0 mm
12:35 AM 49.1°F9.5°C 44.2°F6.8°C 83% 4.5 mph E7.2 kmh E 6.0 mph9.7 kmh 30.13 in1020.3 mb 0.00 in0.0 mm 0.00 in0.0 mm 0.00 in0.0 mm
12:34 AM 49.1°F9.5°C 44.2°F6.8°C 83% 3.8 mph E6.1 kmh E 6.9 mph11.1 kmh 30.12 in1020.0 mb 0.00 in0.0 mm 0.00 in0.0 mm 0.00 in0.0 mm
12:32 AM 49.3°F9.6°C 44.4°F6.9°C 83% 5.4 mph E8.7 kmh E 6.9 mph11.1 kmh 30.12 in1020.0 mb 0.00 in0.0 mm 0.00 in0.0 mm 0.00 in0.0 mm
12:31 AM 49.3°F9.6°C 44.4°F6.9°C 83% 3.8 mph NE6.1 kmh NE 5.4 mph8.7 kmh 30.13 in1020.3 mb 0.00 in0.0 mm 0.00 in0.0 mm 0.00 in0.0 mm
12:30 AM 49.3°F9.6°C 44.4°F6.9°C 83% 3.8 mph E6.1 kmh E 6.0 mph9.7 kmh 30.13 in1020.3 mb 0.00 in0.0 mm 0.00 in0.0 mm 0.00 in0.0 mm
12:29 AM 49.3°F9.6°C 44.6°F7.0°C 84% 4.5 mph NE7.2 kmh NE 6.0 mph9.7 kmh 30.13 in1020.3 mb 0.00 in0.0 mm 0.00 in0.0 mm 0.00 in0.0 mm
12:28 AM 49.3°F9.6°C 44.6°F7.0°C 84% 3.8 mph E6.1 kmh E 5.4 mph8.7 kmh 30.13 in1020.3 mb 0.00 in0.0 mm 0.00 in0.0 mm 0.00 in0.0 mm
12:27 AM 49.3°F9.6°C 44.6°F7.0°C 84% 3.8 mph NE6.1 kmh NE 7.6 mph12.2 kmh 30.13 in1020.3 mb 0.00 in0.0 mm 0.00 in0.0 mm 0.00 in0.0 mm
12:25 AM 49.3°F9.6°C 44.6°F7.0°C 84% 5.4 mph E8.7 kmh E 6.0 mph9.7 kmh 30.13 in1020.3 mb 0.00 in0.0 mm 0.00 in0.0 mm 0.00 in0.0 mm
12:24 AM 49.3°F9.6°C 44.6°F7.0°C 84% 4.5 mph E7.2 kmh E 6.9 mph11.1 kmh 30.13 in1020.3 mb 0.00 in0.0 mm 0.00 in0.0 mm 0.00 in0.0 mm
12:23 AM 49.3°F9.6°C 44.6°F7.0°C 84% 5.4 mph E8.7 kmh E 6.9 mph11.1 kmh 30.12 in1020.0 mb 0.00 in0.0 mm 0.00 in0.0 mm 0.00 in0.0 mm
12:22 AM 49.3°F9.6°C 44.6°F7.0°C 84% 3.8 mph E6.1 kmh E 8.3 mph13.4 kmh 30.13 in1020.3 mb 0.00 in0.0 mm 0.00 in0.0 mm 0.00 in0.0 mm
12:21 AM 49.3°F9.6°C 44.6°F7.0°C 84% 4.5 mph NE7.2 kmh NE 6.9 mph11.1 kmh 30.13 in1020.3 mb 0.00 in0.0 mm 0.00 in0.0 mm 0.00 in0.0 mm
12:20 AM 49.3°F9.6°C 44.6°F7.0°C 84% 3.1 mph E5.0 kmh E 6.0 mph9.7 kmh 30.12 in1020.0 mb 0.00 in0.0 mm 0.00 in0.0 mm 0.00 in0.0 mm
12:18 AM 49.3°F9.6°C 44.6°F7.0°C 84% 3.1 mph NE5.0 kmh NE 5.4 mph8.7 kmh 30.13 in1020.3 mb 0.00 in0.0 mm 0.00 in0.0 mm 0.00 in0.0 mm
12:17 AM 49.3°F9.6°C 44.6°F7.0°C 84% 3.8 mph NE6.1 kmh NE 5.4 mph8.7 kmh 30.13 in1020.3 mb 0.00 in0.0 mm 0.00 in0.0 mm 0.00 in0.0 mm
12:16 AM 49.3°F9.6°C 44.6°F7.0°C 84% 3.1 mph NE5.0 kmh NE 6.9 mph11.1 kmh 30.13 in1020.3 mb 0.00 in0.0 mm 0.00 in0.0 mm 0.00 in0.0 mm
12:15 AM 49.3°F9.6°C 44.6°F7.0°C 84% 3.8 mph NE6.1 kmh NE 6.9 mph11.1 kmh 30.13 in1020.3 mb 0.00 in0.0 mm 0.00 in0.0 mm 0.00 in0.0 mm
12:14 AM 49.3°F9.6°C 44.6°F7.0°C 84% 4.5 mph NE7.2 kmh NE 6.9 mph11.1 kmh 30.13 in1020.3 mb 0.00 in0.0 mm 0.00 in0.0 mm 0.00 in0.0 mm
12:12 AM 49.3°F9.6°C 44.6°F7.0°C 84% 4.5 mph NE7.2 kmh NE 6.9 mph11.1 kmh 30.13 in1020.3 mb 0.00 in0.0 mm 0.00 in0.0 mm 0.00 in0.0 mm
12:11 AM 49.3°F9.6°C 44.6°F7.0°C 84% 4.5 mph NE7.2 kmh NE 7.6 mph12.2 kmh 30.13 in1020.3 mb 0.00 in0.0 mm 0.00 in0.0 mm 0.00 in0.0 mm
12:10 AM 49.3°F9.6°C 44.6°F7.0°C 84% 3.1 mph NE5.0 kmh NE 5.4 mph8.7 kmh 30.13 in1020.3 mb 0.00 in0.0 mm 0.00 in0.0 mm 0.00 in0.0 mm
12:09 AM 49.3°F9.6°C 44.6°F7.0°C 84% 3.8 mph E6.1 kmh E 6.0 mph9.7 kmh 30.13 in1020.3 mb 0.00 in0.0 mm 0.00 in0.0 mm 0.00 in0.0 mm
12:08 AM 49.3°F9.6°C 44.6°F7.0°C 84% 3.8 mph NE6.1 kmh NE 6.9 mph11.1 kmh 30.13 in1020.3 mb 0.00 in0.0 mm 0.00 in0.0 mm 0.00 in0.0 mm
12:07 AM 49.3°F9.6°C 44.6°F7.0°C 84% 4.5 mph NE7.2 kmh NE 6.9 mph11.1 kmh 30.13 in1020.3 mb 0.00 in0.0 mm 0.00 in0.0 mm 0.00 in0.0 mm
12:05 AM 49.3°F9.6°C 44.6°F7.0°C 84% 3.1 mph NE5.0 kmh NE 5.4 mph8.7 kmh 30.13 in1020.3 mb 0.00 in0.0 mm 0.00 in0.0 mm 0.00 in0.0 mm
12:04 AM 49.3°F9.6°C 44.6°F7.0°C 84% 3.8 mph NE6.1 kmh NE 6.0 mph9.7 kmh 30.13 in1020.3 mb 0.00 in0.0 mm 0.00 in0.0 mm 0.00 in0.0 mm
12:03 AM 49.3°F9.6°C 44.6°F7.0°C 84% 3.8 mph E6.1 kmh E 5.4 mph8.7 kmh 30.13 in1020.3 mb 0.00 in0.0 mm 0.00 in0.0 mm 0.00 in0.0 mm
12:02 AM 49.3°F9.6°C 44.6°F7.0°C 84% 3.8 mph NE6.1 kmh NE 5.4 mph8.7 kmh 30.13 in1020.3 mb 0.00 in0.0 mm 0.00 in0.0 mm 0.00 in0.0 mm
12:01 AM 49.3°F9.6°C 44.6°F7.0°C 84% 4.5 mph NE7.2 kmh NE 6.0 mph9.7 kmh 30.14 in1020.7 mb 0.00 in0.0 mm 0.00 in0.0 mm 0.00 in0.0 mm
12:00 AM 49.3°F9.6°C 44.6°F7.0°C 84% 3.8 mph E6.1 kmh E 6.9 mph11.1 kmh 30.13 in1020.3 mb 0.00 in0.0 mm 0.00 in0.0 mm 0.00 in0.0 mm